AGX921 HKJK-LYBE
Flight info
| Callsign | AGX921 |
|---|---|
| Flight time | 6h 52m |
| Altitude | 40000 |
| Route | ETORU1A KAMAS UA727 ANTAX/N0475F390 A727 AVONO/N0471F400 P309 BOTOK DCT LUGAV L321 RALSU Q734 NOGLI L551 ANTAR UN133 KPC UN137 SKP UL617 MAKED/N0398F200 L617 RAXAD DCT OSVIX |
| Aircraft | A332/H-SDE3GHIJ2J3J5M1RVWXY/LB2D1 |
Departure
| Time | 2026-05-07 15:30 |
|---|---|
| Airport | Jomo Kenyatta International Airport (HKJK) |
Arrival
| Time | 2026-05-07 22:22 |
|---|---|
| Airport | Belgrade Nikola Tesla Airport (LYBE) |
| Time | Latitude | Longitude | Altitude | Speed | Heading |
|---|---|---|---|---|---|
| 2026-05-07 15:09 | -1.32952 | 36.92340 | 5328 ft | 0 kts | 122° |
| 2026-05-07 15:21 | -1.32951 | 36.92338 | 5328 ft | 3 kts | 122° |
| 2026-05-07 15:21 | -1.32940 | 36.92321 | 5317 ft | 3 kts | 122° |
| 2026-05-07 15:21 | -1.32929 | 36.92303 | 5317 ft | 3 kts | 122° |
| 2026-05-07 15:22 | -1.32918 | 36.92286 | 5317 ft | 3 kts | 111° |
| 2026-05-07 15:22 | -1.32920 | 36.92268 | 5317 ft | 3 kts | 49° |
| 2026-05-07 15:22 | -1.32922 | 36.92265 | 5317 ft | 0 kts | 47° |
| 2026-05-07 15:24 | -1.32919 | 36.92266 | 5328 ft | 1 kts | 34° |
| 2026-05-07 15:25 | -1.32893 | 36.92272 | 5325 ft | 6 kts | 356° |
| 2026-05-07 15:25 | -1.32838 | 36.92235 | 5319 ft | 13 kts | 321° |
| 2026-05-07 15:25 | -1.32795 | 36.92185 | 5334 ft | 4 kts | 277° |
| 2026-05-07 15:25 | -1.32805 | 36.92141 | 5333 ft | 9 kts | 253° |
| 2026-05-07 15:26 | -1.32844 | 36.92083 | 5336 ft | 14 kts | 235° |
| 2026-05-07 15:26 | -1.32915 | 36.91987 | 5335 ft | 18 kts | 233° |
| 2026-05-07 15:26 | -1.32983 | 36.91892 | 5338 ft | 15 kts | 236° |
| 2026-05-07 15:26 | -1.32994 | 36.91833 | 5341 ft | 3 kts | 283° |
| 2026-05-07 15:27 | -1.32991 | 36.91827 | 5341 ft | 1 kts | 294° |
| 2026-05-07 15:27 | -1.32985 | 36.91820 | 5342 ft | 1 kts | 317° |
| 2026-05-07 15:27 | -1.32953 | 36.91791 | 5345 ft | 11 kts | 319° |
| 2026-05-07 15:27 | -1.32886 | 36.91743 | 5343 ft | 12 kts | 323° |
| 2026-05-07 15:28 | -1.32816 | 36.91692 | 5342 ft | 13 kts | 324° |
| 2026-05-07 15:28 | -1.32749 | 36.91683 | 5344 ft | 10 kts | 19° |
| 2026-05-07 15:28 | -1.32681 | 36.91749 | 5341 ft | 16 kts | 55° |
| 2026-05-07 15:28 | -1.32556 | 36.91921 | 5334 ft | 54 kts | 54° |
| 2026-05-07 15:29 | -1.32237 | 36.92354 | 5316 ft | 99 kts | 54° |
| 2026-05-07 15:29 | -1.31748 | 36.93018 | 5307 ft | 138 kts | 53° |
| 2026-05-07 15:29 | -1.31111 | 36.93873 | 5352 ft | 164 kts | 54° |
| 2026-05-07 15:29 | -1.30690 | 36.94518 | 5627 ft | 165 kts | 59° |
| 2026-05-07 15:30 | -1.30037 | 36.95478 | 6052 ft | 172 kts | 56° |
| 2026-05-07 15:30 | -1.29248 | 36.96412 | 6431 ft | 184 kts | 50° |
| 2026-05-07 15:30 | -1.28037 | 36.97714 | 6899 ft | 198 kts | 49° |
| 2026-05-07 15:30 | -1.27411 | 36.98403 | 7093 ft | 207 kts | 54° |
| 2026-05-07 15:31 | -1.26553 | 36.99656 | 7283 ft | 231 kts | 60° |
| 2026-05-07 15:31 | -1.25633 | 37.01078 | 7523 ft | 255 kts | 58° |
| 2026-05-07 15:31 | -1.24590 | 37.02599 | 7864 ft | 274 kts | 56° |
| 2026-05-07 15:31 | -1.23469 | 37.04171 | 8436 ft | 281 kts | 56° |
| 2026-05-07 15:32 | -1.22308 | 37.05770 | 9072 ft | 288 kts | 55° |
| 2026-05-07 15:32 | -1.21112 | 37.07396 | 9760 ft | 292 kts | 54° |
| 2026-05-07 15:32 | -1.19897 | 37.09047 | 10398 ft | 300 kts | 54° |
| 2026-05-07 15:32 | -1.18624 | 37.10778 | 10704 ft | 318 kts | 54° |
| 2026-05-07 15:33 | -1.17272 | 37.12613 | 10971 ft | 336 kts | 54° |
| 2026-05-07 15:33 | -1.15848 | 37.14539 | 11215 ft | 353 kts | 54° |
| 2026-05-07 15:33 | -1.14353 | 37.16550 | 11449 ft | 367 kts | 54° |
| 2026-05-07 15:33 | -1.12815 | 37.18628 | 11853 ft | 375 kts | 54° |
| 2026-05-07 15:34 | -1.11247 | 37.20735 | 12348 ft | 380 kts | 54° |
| 2026-05-07 15:34 | -1.09666 | 37.22859 | 12929 ft | 382 kts | 54° |
| 2026-05-07 15:34 | -1.08061 | 37.24986 | 13370 ft | 387 kts | 51° |
| 2026-05-07 15:34 | -1.06132 | 37.26879 | 13863 ft | 392 kts | 37° |
| 2026-05-07 15:35 | -1.03735 | 37.28190 | 14336 ft | 396 kts | 20° |
| 2026-05-07 15:35 | -1.01032 | 37.28734 | 14798 ft | 400 kts | 3° |
| 2026-05-07 15:35 | -0.98241 | 37.28642 | 15259 ft | 403 kts | 356° |
| 2026-05-07 15:35 | -0.95438 | 37.28380 | 15709 ft | 406 kts | 353° |
| 2026-05-07 15:36 | -0.92677 | 37.27772 | 16135 ft | 410 kts | 340° |
| 2026-05-07 15:36 | -0.90146 | 37.26446 | 16600 ft | 413 kts | 328° |
| 2026-05-07 15:36 | -0.87762 | 37.24826 | 17043 ft | 416 kts | 325° |
| 2026-05-07 15:36 | -0.85391 | 37.23155 | 17473 ft | 418 kts | 325° |
| 2026-05-07 15:37 | -0.82998 | 37.21471 | 17865 ft | 422 kts | 326° |
| 2026-05-07 15:37 | -0.80619 | 37.19806 | 18275 ft | 425 kts | 326° |
| 2026-05-07 15:37 | -0.78187 | 37.18111 | 18611 ft | 428 kts | 326° |
| 2026-05-07 15:37 | -0.75739 | 37.16408 | 18988 ft | 429 kts | 326° |
| 2026-05-07 15:38 | -0.73282 | 37.14702 | 19343 ft | 431 kts | 326° |
| 2026-05-07 15:38 | -0.70820 | 37.12993 | 19737 ft | 432 kts | 326° |
| 2026-05-07 15:38 | -0.68341 | 37.11273 | 20038 ft | 435 kts | 326° |
| 2026-05-07 15:38 | -0.65851 | 37.09546 | 20369 ft | 437 kts | 326° |
| 2026-05-07 15:39 | -0.63345 | 37.07808 | 20676 ft | 439 kts | 326° |
| 2026-05-07 15:39 | -0.60828 | 37.06063 | 21010 ft | 441 kts | 326° |
| 2026-05-07 15:39 | -0.58299 | 37.04310 | 21340 ft | 442 kts | 325° |
| 2026-05-07 15:39 | -0.55769 | 37.02555 | 21679 ft | 444 kts | 325° |
| 2026-05-07 15:40 | -0.53223 | 37.00793 | 21977 ft | 446 kts | 325° |
| 2026-05-07 15:40 | -0.50666 | 36.99024 | 22284 ft | 448 kts | 326° |
| 2026-05-07 15:40 | -0.48103 | 36.97252 | 22643 ft | 448 kts | 326° |
| 2026-05-07 15:40 | -0.45534 | 36.95476 | 22956 ft | 450 kts | 326° |
| 2026-05-07 15:41 | -0.42955 | 36.93693 | 23240 ft | 452 kts | 326° |
| 2026-05-07 15:41 | -0.40361 | 36.91899 | 23518 ft | 454 kts | 326° |
| 2026-05-07 15:41 | -0.37755 | 36.90098 | 23789 ft | 456 kts | 326° |
| 2026-05-07 15:41 | -0.35142 | 36.88291 | 24017 ft | 458 kts | 326° |
| 2026-05-07 15:42 | -0.32517 | 36.86477 | 24282 ft | 459 kts | 326° |
| 2026-05-07 15:42 | -0.29886 | 36.84657 | 24502 ft | 461 kts | 326° |
| 2026-05-07 15:42 | -0.27247 | 36.82833 | 24738 ft | 462 kts | 325° |
| 2026-05-07 15:42 | -0.24631 | 36.81024 | 24940 ft | 465 kts | 325° |
| 2026-05-07 15:43 | -0.21967 | 36.79183 | 25189 ft | 466 kts | 325° |
| 2026-05-07 15:43 | -0.19296 | 36.77336 | 25413 ft | 467 kts | 326° |
| 2026-05-07 15:43 | -0.16623 | 36.75488 | 25671 ft | 468 kts | 325° |
| 2026-05-07 15:43 | -0.13935 | 36.73630 | 25881 ft | 471 kts | 325° |
| 2026-05-07 15:44 | -0.11238 | 36.71766 | 26101 ft | 473 kts | 326° |
| 2026-05-07 15:44 | -0.08527 | 36.69891 | 26319 ft | 475 kts | 325° |
| 2026-05-07 15:44 | -0.05811 | 36.68014 | 26564 ft | 476 kts | 326° |
| 2026-05-07 15:44 | -0.03084 | 36.66129 | 26803 ft | 477 kts | 326° |
| 2026-05-07 15:45 | -0.00351 | 36.64239 | 27039 ft | 478 kts | 326° |
| 2026-05-07 15:45 | 0.02397 | 36.62339 | 27145 ft | 483 kts | 326° |
| 2026-05-07 15:45 | 0.05168 | 36.60423 | 27353 ft | 484 kts | 326° |
| 2026-05-07 15:45 | 0.07939 | 36.58507 | 27587 ft | 485 kts | 326° |
| 2026-05-07 15:46 | 0.13508 | 36.54658 | 28029 ft | 488 kts | 326° |
| 2026-05-07 15:46 | 0.16303 | 36.52725 | 28265 ft | 489 kts | 326° |
| 2026-05-07 15:46 | 0.19106 | 36.50788 | 28479 ft | 491 kts | 326° |
| 2026-05-07 15:47 | 0.21916 | 36.48845 | 28720 ft | 492 kts | 325° |
| 2026-05-07 15:47 | 0.24732 | 36.46898 | 28890 ft | 493 kts | 326° |
| 2026-05-07 15:47 | 0.27555 | 36.44947 | 29102 ft | 494 kts | 325° |
| 2026-05-07 15:47 | 0.30388 | 36.42988 | 29303 ft | 496 kts | 326° |
| 2026-05-07 15:48 | 0.33224 | 36.41027 | 29509 ft | 497 kts | 326° |
| 2026-05-07 15:48 | 0.36072 | 36.39058 | 29681 ft | 498 kts | 325° |
| 2026-05-07 15:48 | 0.38887 | 36.37112 | 29917 ft | 498 kts | 325° |
| 2026-05-07 15:49 | 0.44580 | 36.33175 | 29969 ft | 498 kts | 325° |
| 2026-05-07 15:49 | 0.50275 | 36.29238 | 29945 ft | 497 kts | 326° |
| 2026-05-07 15:49 | 0.53123 | 36.27269 | 30090 ft | 498 kts | 326° |
| 2026-05-07 15:50 | 0.56046 | 36.25426 | 30356 ft | 497 kts | 332° |
| 2026-05-07 15:50 | 0.59182 | 36.23980 | 30599 ft | 495 kts | 338° |
| 2026-05-07 15:50 | 0.62392 | 36.22735 | 30848 ft | 494 kts | 339° |
| 2026-05-07 15:50 | 0.65607 | 36.21527 | 31093 ft | 493 kts | 340° |
| 2026-05-07 15:51 | 0.68820 | 36.20323 | 31293 ft | 494 kts | 339° |
| 2026-05-07 15:51 | 0.72032 | 36.19115 | 31536 ft | 493 kts | 340° |
| 2026-05-07 15:51 | 0.75239 | 36.17908 | 31785 ft | 492 kts | 339° |
| 2026-05-07 15:51 | 0.78436 | 36.16702 | 32031 ft | 491 kts | 339° |
| 2026-05-07 15:52 | 0.81636 | 36.15495 | 32223 ft | 491 kts | 339° |
| 2026-05-07 15:52 | 0.84828 | 36.14289 | 32496 ft | 490 kts | 339° |
| 2026-05-07 15:52 | 0.88013 | 36.13087 | 32737 ft | 489 kts | 339° |
| 2026-05-07 15:52 | 0.91151 | 36.11902 | 32955 ft | 489 kts | 339° |
| 2026-05-07 15:53 | 0.94335 | 36.10699 | 33185 ft | 489 kts | 339° |
| 2026-05-07 15:53 | 0.97512 | 36.09499 | 33455 ft | 487 kts | 339° |
| 2026-05-07 15:53 | 1.00682 | 36.08301 | 33671 ft | 487 kts | 339° |
| 2026-05-07 15:53 | 1.03840 | 36.07108 | 33865 ft | 487 kts | 339° |
| 2026-05-07 15:54 | 1.07009 | 36.05911 | 34087 ft | 486 kts | 339° |
| 2026-05-07 15:54 | 1.10170 | 36.04717 | 34318 ft | 485 kts | 339° |
| 2026-05-07 15:54 | 1.13325 | 36.03525 | 34516 ft | 484 kts | 339° |
| 2026-05-07 15:54 | 1.16475 | 36.02335 | 34714 ft | 484 kts | 339° |
| 2026-05-07 15:55 | 1.19620 | 36.01147 | 34988 ft | 482 kts | 339° |
| 2026-05-07 15:55 | 1.22753 | 35.99963 | 35194 ft | 481 kts | 339° |
| 2026-05-07 15:55 | 1.25879 | 35.98782 | 35382 ft | 481 kts | 339° |
| 2026-05-07 15:55 | 1.29008 | 35.97600 | 35586 ft | 480 kts | 339° |
| 2026-05-07 15:56 | 1.32125 | 35.96422 | 35861 ft | 478 kts | 339° |
| 2026-05-07 15:56 | 1.35231 | 35.95248 | 36066 ft | 477 kts | 339° |
| 2026-05-07 15:56 | 1.38343 | 35.94072 | 36198 ft | 478 kts | 339° |
| 2026-05-07 15:56 | 1.41450 | 35.92898 | 36428 ft | 476 kts | 339° |
| 2026-05-07 15:57 | 1.44542 | 35.91730 | 36690 ft | 475 kts | 339° |
| 2026-05-07 15:57 | 1.47621 | 35.90566 | 36875 ft | 475 kts | 339° |
| 2026-05-07 15:57 | 1.50714 | 35.89397 | 37045 ft | 474 kts | 339° |
| 2026-05-07 15:57 | 1.53794 | 35.88233 | 37324 ft | 472 kts | 339° |
| 2026-05-07 15:58 | 1.56862 | 35.87073 | 37478 ft | 472 kts | 339° |
| 2026-05-07 15:58 | 1.63121 | 35.85002 | 37703 ft | 475 kts | 347° |
| 2026-05-07 15:58 | 1.66313 | 35.84363 | 37913 ft | 474 kts | 349° |
| 2026-05-07 15:59 | 1.69564 | 35.83806 | 38094 ft | 474 kts | 350° |
| 2026-05-07 15:59 | 1.72815 | 35.83295 | 38277 ft | 473 kts | 350° |
| 2026-05-07 15:59 | 1.76069 | 35.82801 | 38456 ft | 472 kts | 351° |
| 2026-05-07 15:59 | 1.79316 | 35.82307 | 38583 ft | 472 kts | 350° |
| 2026-05-07 16:00 | 1.82563 | 35.81806 | 38739 ft | 472 kts | 350° |
| 2026-05-07 16:00 | 1.85801 | 35.81300 | 38858 ft | 471 kts | 350° |
| 2026-05-07 16:00 | 1.89041 | 35.80786 | 38910 ft | 472 kts | 350° |
| 2026-05-07 16:01 | 1.95536 | 35.79753 | 39135 ft | 472 kts | 350° |
| 2026-05-07 16:01 | 1.98782 | 35.79231 | 39237 ft | 472 kts | 350° |
| 2026-05-07 16:01 | 2.02025 | 35.78709 | 39372 ft | 472 kts | 350° |
| 2026-05-07 16:01 | 2.05264 | 35.78188 | 39496 ft | 471 kts | 350° |
| 2026-05-07 16:02 | 2.08501 | 35.77668 | 39602 ft | 471 kts | 350° |
| 2026-05-07 16:02 | 2.11735 | 35.77149 | 39730 ft | 470 kts | 349° |
| 2026-05-07 16:02 | 2.14966 | 35.76631 | 39787 ft | 470 kts | 350° |
| 2026-05-07 16:03 | 2.21396 | 35.75612 | 39793 ft | 467 kts | 349° |
| 2026-05-07 16:03 | 2.27808 | 35.74582 | 39796 ft | 467 kts | 349° |
| 2026-05-07 16:04 | 2.34223 | 35.73549 | 39794 ft | 467 kts | 350° |
| 2026-05-07 16:04 | 2.40598 | 35.72528 | 39793 ft | 467 kts | 349° |
| 2026-05-07 16:05 | 2.47017 | 35.71502 | 39786 ft | 467 kts | 349° |
| 2026-05-07 16:05 | 2.53432 | 35.70464 | 39785 ft | 467 kts | 349° |
| 2026-05-07 16:06 | 2.59849 | 35.69433 | 39786 ft | 467 kts | 351° |
| 2026-05-07 16:06 | 2.66268 | 35.68415 | 39785 ft | 467 kts | 349° |
| 2026-05-07 16:07 | 2.72689 | 35.67396 | 39791 ft | 467 kts | 350° |
| 2026-05-07 16:07 | 2.79101 | 35.66353 | 39782 ft | 467 kts | 349° |
| 2026-05-07 16:08 | 2.85519 | 35.65323 | 39779 ft | 467 kts | 349° |
| 2026-05-07 16:08 | 2.91933 | 35.64288 | 39778 ft | 467 kts | 349° |
| 2026-05-07 16:09 | 2.98349 | 35.63260 | 39778 ft | 467 kts | 350° |
| 2026-05-07 16:09 | 3.04770 | 35.62246 | 39782 ft | 467 kts | 349° |
| 2026-05-07 16:10 | 3.11167 | 35.61130 | 39781 ft | 466 kts | 345° |
| 2026-05-07 16:10 | 3.17458 | 35.59569 | 39773 ft | 466 kts | 344° |
| 2026-05-07 16:11 | 3.23730 | 35.57920 | 39777 ft | 466 kts | 344° |
| 2026-05-07 16:11 | 3.29956 | 35.56283 | 39779 ft | 466 kts | 344° |
| 2026-05-07 16:12 | 3.36229 | 35.54650 | 39782 ft | 466 kts | 344° |
| 2026-05-07 16:12 | 3.42502 | 35.53014 | 39791 ft | 466 kts | 344° |
| 2026-05-07 16:13 | 3.48755 | 35.51378 | 39794 ft | 464 kts | 345° |
| 2026-05-07 16:13 | 3.54989 | 35.49747 | 39787 ft | 463 kts | 345° |
| 2026-05-07 16:14 | 3.61222 | 35.48123 | 39789 ft | 463 kts | 345° |
| 2026-05-07 16:14 | 3.67453 | 35.46500 | 39790 ft | 463 kts | 344° |
| 2026-05-07 16:15 | 3.73686 | 35.44873 | 39801 ft | 463 kts | 344° |
| 2026-05-07 16:15 | 3.79910 | 35.43248 | 39801 ft | 463 kts | 344° |
| 2026-05-07 16:16 | 3.86141 | 35.41637 | 39801 ft | 462 kts | 345° |
| 2026-05-07 16:16 | 3.92371 | 35.40024 | 39799 ft | 463 kts | 344° |
| 2026-05-07 16:17 | 3.98595 | 35.38390 | 39806 ft | 462 kts | 344° |
| 2026-05-07 16:17 | 4.04812 | 35.36719 | 39797 ft | 462 kts | 344° |
| 2026-05-07 16:18 | 4.11013 | 35.35029 | 39803 ft | 462 kts | 343° |
| 2026-05-07 16:18 | 4.17218 | 35.33337 | 39805 ft | 462 kts | 343° |
| 2026-05-07 16:19 | 4.23422 | 35.31659 | 39790 ft | 462 kts | 343° |
| 2026-05-07 16:19 | 4.29624 | 35.29965 | 39789 ft | 462 kts | 344° |
| 2026-05-07 16:20 | 4.34778 | 35.28555 | 39791 ft | 462 kts | 344° |
| 2026-05-07 16:20 | 4.40981 | 35.26874 | 39804 ft | 462 kts | 343° |
| 2026-05-07 16:21 | 4.48198 | 35.24907 | 39795 ft | 462 kts | 343° |
| 2026-05-07 16:21 | 4.53404 | 35.23494 | 39801 ft | 463 kts | 343° |
| 2026-05-07 16:22 | 4.59622 | 35.21802 | 39794 ft | 463 kts | 344° |
| 2026-05-07 16:22 | 4.65840 | 35.20116 | 39808 ft | 463 kts | 343° |
| 2026-05-07 16:23 | 4.72012 | 35.18444 | 39797 ft | 463 kts | 344° |
| 2026-05-07 16:23 | 4.78225 | 35.16737 | 39799 ft | 463 kts | 344° |
| 2026-05-07 16:24 | 4.84435 | 35.15042 | 39801 ft | 463 kts | 344° |
| 2026-05-07 16:24 | 4.90645 | 35.13332 | 39791 ft | 462 kts | 344° |
| 2026-05-07 16:25 | 4.96858 | 35.11649 | 39794 ft | 463 kts | 343° |
| 2026-05-07 16:25 | 5.03074 | 35.09961 | 39799 ft | 463 kts | 344° |
| 2026-05-07 16:26 | 5.09295 | 35.08261 | 39797 ft | 463 kts | 343° |
| 2026-05-07 16:26 | 5.15517 | 35.06575 | 39806 ft | 463 kts | 343° |
| 2026-05-07 16:27 | 5.21741 | 35.04887 | 39803 ft | 463 kts | 343° |
| 2026-05-07 16:27 | 5.27922 | 35.03189 | 39815 ft | 464 kts | 344° |
| 2026-05-07 16:28 | 5.34186 | 35.01491 | 39815 ft | 463 kts | 344° |
| 2026-05-07 16:28 | 5.40389 | 34.99862 | 39833 ft | 464 kts | 344° |
| 2026-05-07 16:29 | 5.46637 | 34.98226 | 39837 ft | 465 kts | 344° |
| 2026-05-07 16:29 | 5.52901 | 34.96595 | 39847 ft | 465 kts | 343° |
| 2026-05-07 16:30 | 5.59167 | 34.94955 | 39850 ft | 465 kts | 343° |
| 2026-05-07 16:30 | 5.65434 | 34.93308 | 39849 ft | 466 kts | 344° |
| 2026-05-07 16:31 | 5.71705 | 34.91657 | 39850 ft | 466 kts | 344° |
| 2026-05-07 16:31 | 5.77982 | 34.90005 | 39856 ft | 466 kts | 344° |
| 2026-05-07 16:32 | 5.84257 | 34.88355 | 39857 ft | 466 kts | 344° |
| 2026-05-07 16:32 | 5.90536 | 34.86704 | 39862 ft | 466 kts | 344° |
| 2026-05-07 16:33 | 5.96812 | 34.85054 | 39863 ft | 466 kts | 344° |
| 2026-05-07 16:33 | 6.03087 | 34.83405 | 39849 ft | 466 kts | 344° |
| 2026-05-07 16:34 | 6.09366 | 34.81753 | 39850 ft | 466 kts | 344° |
| 2026-05-07 16:34 | 6.15643 | 34.80102 | 39851 ft | 466 kts | 344° |
| 2026-05-07 16:35 | 6.21921 | 34.78450 | 39853 ft | 466 kts | 344° |
| 2026-05-07 16:35 | 6.28199 | 34.76798 | 39850 ft | 467 kts | 344° |
| 2026-05-07 16:36 | 6.34450 | 34.75158 | 39850 ft | 468 kts | 344° |
| 2026-05-07 16:36 | 6.40749 | 34.73497 | 39846 ft | 468 kts | 344° |
| 2026-05-07 16:37 | 6.47050 | 34.71834 | 39840 ft | 468 kts | 344° |
| 2026-05-07 16:37 | 6.53400 | 34.70160 | 39839 ft | 468 kts | 344° |
| 2026-05-07 16:38 | 6.59707 | 34.68497 | 39842 ft | 469 kts | 344° |
| 2026-05-07 16:38 | 6.65974 | 34.66845 | 39840 ft | 469 kts | 344° |
| 2026-05-07 16:39 | 6.72275 | 34.65155 | 39840 ft | 469 kts | 344° |
| 2026-05-07 16:39 | 6.78569 | 34.63439 | 39842 ft | 469 kts | 344° |
| 2026-05-07 16:40 | 6.84866 | 34.61722 | 39833 ft | 469 kts | 344° |
| 2026-05-07 16:40 | 6.91160 | 34.60008 | 39831 ft | 469 kts | 344° |
| 2026-05-07 16:41 | 6.97458 | 34.58295 | 39832 ft | 469 kts | 344° |
| 2026-05-07 16:41 | 7.03757 | 34.56581 | 39828 ft | 469 kts | 344° |
| 2026-05-07 16:42 | 7.10054 | 34.54867 | 39829 ft | 469 kts | 344° |
| 2026-05-07 16:42 | 7.16353 | 34.53153 | 39828 ft | 469 kts | 344° |
| 2026-05-07 16:43 | 7.22651 | 34.51437 | 39825 ft | 469 kts | 344° |
| 2026-05-07 16:43 | 7.28956 | 34.49724 | 39821 ft | 469 kts | 344° |
| 2026-05-07 16:44 | 7.35261 | 34.48005 | 39817 ft | 469 kts | 344° |
| 2026-05-07 16:44 | 7.41569 | 34.46272 | 39820 ft | 470 kts | 344° |
| 2026-05-07 16:45 | 7.47897 | 34.44542 | 39820 ft | 471 kts | 344° |
| 2026-05-07 16:45 | 7.54231 | 34.42824 | 39821 ft | 472 kts | 344° |
| 2026-05-07 16:46 | 7.60568 | 34.41101 | 39818 ft | 472 kts | 344° |
| 2026-05-07 16:46 | 7.66903 | 34.39373 | 39818 ft | 472 kts | 344° |
| 2026-05-07 16:47 | 7.73196 | 34.37656 | 39816 ft | 472 kts | 344° |
| 2026-05-07 16:47 | 7.79529 | 34.35926 | 39816 ft | 472 kts | 344° |
| 2026-05-07 16:48 | 7.85864 | 34.34196 | 39816 ft | 472 kts | 343° |
| 2026-05-07 16:48 | 7.92195 | 34.32466 | 39815 ft | 472 kts | 343° |
| 2026-05-07 16:49 | 7.98531 | 34.30734 | 39815 ft | 472 kts | 343° |
| 2026-05-07 16:49 | 8.04866 | 34.29002 | 39815 ft | 472 kts | 343° |
| 2026-05-07 16:50 | 8.11198 | 34.27265 | 39813 ft | 472 kts | 343° |
| 2026-05-07 16:50 | 8.17527 | 34.25520 | 39819 ft | 471 kts | 343° |
| 2026-05-07 16:51 | 8.23853 | 34.23780 | 39813 ft | 471 kts | 343° |
| 2026-05-07 16:51 | 8.30178 | 34.22034 | 39818 ft | 471 kts | 343° |
| 2026-05-07 16:52 | 8.36505 | 34.20282 | 39814 ft | 471 kts | 343° |
| 2026-05-07 16:52 | 8.42832 | 34.18533 | 39812 ft | 472 kts | 343° |
| 2026-05-07 16:53 | 8.49166 | 34.16783 | 39815 ft | 472 kts | 343° |
| 2026-05-07 16:53 | 8.55491 | 34.15036 | 39821 ft | 471 kts | 343° |
| 2026-05-07 16:54 | 8.61816 | 34.13287 | 39822 ft | 471 kts | 343° |
| 2026-05-07 16:54 | 8.68136 | 34.11540 | 39826 ft | 471 kts | 343° |
| 2026-05-07 16:55 | 8.74455 | 34.09792 | 39820 ft | 471 kts | 343° |
| 2026-05-07 16:55 | 8.80780 | 34.08042 | 39823 ft | 471 kts | 343° |
| 2026-05-07 16:56 | 8.87050 | 34.06307 | 39826 ft | 470 kts | 343° |
| 2026-05-07 16:56 | 8.96514 | 34.03686 | 39832 ft | 470 kts | 343° |
| 2026-05-07 16:57 | 9.02824 | 34.01938 | 39832 ft | 470 kts | 343° |
| 2026-05-07 16:57 | 9.09133 | 34.00190 | 39825 ft | 470 kts | 343° |
| 2026-05-07 16:58 | 9.15442 | 33.98441 | 39826 ft | 470 kts | 343° |
| 2026-05-07 16:58 | 9.21752 | 33.96691 | 39833 ft | 470 kts | 343° |
| 2026-05-07 16:59 | 9.28060 | 33.94940 | 39835 ft | 470 kts | 342° |
| 2026-05-07 16:59 | 9.34400 | 33.93340 | 39830 ft | 470 kts | 348° |
| 2026-05-07 17:00 | 9.40864 | 33.92272 | 39834 ft | 471 kts | 349° |
| 2026-05-07 17:00 | 9.47348 | 33.91310 | 39836 ft | 471 kts | 349° |
| 2026-05-07 17:01 | 9.53844 | 33.90364 | 39836 ft | 472 kts | 349° |
| 2026-05-07 17:01 | 9.60336 | 33.89411 | 39825 ft | 471 kts | 349° |
| 2026-05-07 17:02 | 9.66828 | 33.88450 | 39821 ft | 471 kts | 349° |
| 2026-05-07 17:02 | 9.73319 | 33.87487 | 39823 ft | 471 kts | 349° |
| 2026-05-07 17:03 | 9.79816 | 33.86522 | 39822 ft | 472 kts | 349° |
| 2026-05-07 17:03 | 9.86323 | 33.85556 | 39826 ft | 473 kts | 349° |
| 2026-05-07 17:04 | 9.92834 | 33.84589 | 39822 ft | 473 kts | 349° |
| 2026-05-07 17:04 | 9.99342 | 33.83623 | 39824 ft | 473 kts | 349° |
| 2026-05-07 17:05 | 10.05809 | 33.82662 | 39826 ft | 473 kts | 349° |
| 2026-05-07 17:05 | 10.12332 | 33.81692 | 39825 ft | 475 kts | 349° |
| 2026-05-07 17:06 | 10.18873 | 33.80719 | 39827 ft | 475 kts | 349° |
| 2026-05-07 17:06 | 10.25440 | 33.79741 | 39832 ft | 479 kts | 349° |
| 2026-05-07 17:07 | 10.32069 | 33.78754 | 39829 ft | 483 kts | 349° |
| 2026-05-07 17:07 | 10.38715 | 33.77765 | 39824 ft | 482 kts | 349° |
| 2026-05-07 17:08 | 10.45343 | 33.76779 | 39821 ft | 481 kts | 349° |
| 2026-05-07 17:08 | 10.51963 | 33.75756 | 39830 ft | 481 kts | 348° |
| 2026-05-07 17:09 | 10.58568 | 33.74659 | 39827 ft | 481 kts | 348° |
| 2026-05-07 17:09 | 10.65171 | 33.73551 | 39831 ft | 481 kts | 348° |
| 2026-05-07 17:10 | 10.70706 | 33.72628 | 39830 ft | 482 kts | 348° |
| 2026-05-07 17:10 | 10.77291 | 33.71534 | 39830 ft | 483 kts | 348° |
| 2026-05-07 17:11 | 10.83931 | 33.70433 | 39826 ft | 484 kts | 348° |
| 2026-05-07 17:11 | 10.90573 | 33.69332 | 39832 ft | 483 kts | 348° |
| 2026-05-07 17:12 | 10.97215 | 33.68230 | 39814 ft | 484 kts | 348° |
| 2026-05-07 17:12 | 11.03886 | 33.67121 | 39821 ft | 488 kts | 348° |
| 2026-05-07 17:13 | 11.10605 | 33.66004 | 39817 ft | 490 kts | 348° |
| 2026-05-07 17:13 | 11.17335 | 33.64887 | 39824 ft | 490 kts | 348° |
| 2026-05-07 17:14 | 11.24063 | 33.63768 | 39819 ft | 490 kts | 348° |
| 2026-05-07 17:14 | 11.30791 | 33.62649 | 39815 ft | 490 kts | 347° |
| 2026-05-07 17:15 | 11.37512 | 33.61537 | 39816 ft | 489 kts | 348° |
| 2026-05-07 17:15 | 11.44223 | 33.60418 | 39819 ft | 489 kts | 347° |
| 2026-05-07 17:16 | 11.50932 | 33.59297 | 39820 ft | 489 kts | 348° |
| 2026-05-07 17:16 | 11.57639 | 33.58177 | 39816 ft | 488 kts | 348° |
| 2026-05-07 17:17 | 11.64347 | 33.57058 | 39808 ft | 488 kts | 347° |
| 2026-05-07 17:17 | 11.71047 | 33.55940 | 39812 ft | 488 kts | 347° |
| 2026-05-07 17:18 | 11.77747 | 33.54822 | 39809 ft | 488 kts | 347° |
| 2026-05-07 17:18 | 11.84445 | 33.53703 | 39798 ft | 488 kts | 347° |
| 2026-05-07 17:19 | 11.91144 | 33.52583 | 39812 ft | 488 kts | 347° |
| 2026-05-07 17:19 | 11.97808 | 33.51470 | 39809 ft | 488 kts | 347° |
| 2026-05-07 17:20 | 12.04507 | 33.50349 | 39805 ft | 488 kts | 347° |
| 2026-05-07 17:20 | 12.11207 | 33.49228 | 39802 ft | 488 kts | 347° |
| 2026-05-07 17:21 | 12.17907 | 33.48106 | 39798 ft | 488 kts | 347° |
| 2026-05-07 17:21 | 12.24604 | 33.46984 | 39792 ft | 488 kts | 347° |
| 2026-05-07 17:22 | 12.31304 | 33.45861 | 39795 ft | 488 kts | 347° |
| 2026-05-07 17:22 | 12.38002 | 33.44738 | 39791 ft | 488 kts | 347° |
| 2026-05-07 17:23 | 12.44702 | 33.43613 | 39789 ft | 488 kts | 347° |
| 2026-05-07 17:23 | 12.51397 | 33.42489 | 39789 ft | 488 kts | 347° |
| 2026-05-07 17:24 | 12.58099 | 33.41364 | 39793 ft | 488 kts | 347° |
| 2026-05-07 17:24 | 12.64793 | 33.40239 | 39787 ft | 488 kts | 347° |
| 2026-05-07 17:25 | 12.71495 | 33.39112 | 39791 ft | 488 kts | 347° |
| 2026-05-07 17:25 | 12.78189 | 33.37986 | 39791 ft | 488 kts | 347° |
| 2026-05-07 17:26 | 12.84843 | 33.36866 | 39788 ft | 488 kts | 347° |
| 2026-05-07 17:26 | 12.91544 | 33.35737 | 39780 ft | 488 kts | 347° |
| 2026-05-07 17:27 | 12.98248 | 33.34607 | 39771 ft | 488 kts | 347° |
| 2026-05-07 17:27 | 13.04951 | 33.33477 | 39769 ft | 488 kts | 347° |
| 2026-05-07 17:28 | 13.11654 | 33.32347 | 39770 ft | 488 kts | 347° |
| 2026-05-07 17:28 | 13.18354 | 33.31216 | 39769 ft | 488 kts | 347° |
| 2026-05-07 17:29 | 13.25068 | 33.30082 | 39766 ft | 489 kts | 347° |
| 2026-05-07 17:29 | 13.31789 | 33.28946 | 39759 ft | 489 kts | 347° |
| 2026-05-07 17:30 | 13.38508 | 33.27810 | 39763 ft | 490 kts | 347° |
| 2026-05-07 17:30 | 13.45230 | 33.26673 | 39757 ft | 490 kts | 347° |
| 2026-05-07 17:31 | 13.51952 | 33.25536 | 39752 ft | 490 kts | 347° |
| 2026-05-07 17:31 | 13.58676 | 33.24396 | 39749 ft | 490 kts | 347° |
| 2026-05-07 17:32 | 13.65401 | 33.23257 | 39752 ft | 490 kts | 347° |
| 2026-05-07 17:32 | 13.72125 | 33.22117 | 39746 ft | 490 kts | 347° |
| 2026-05-07 17:33 | 13.78847 | 33.20976 | 39749 ft | 490 kts | 347° |
| 2026-05-07 17:33 | 13.85571 | 33.19835 | 39744 ft | 490 kts | 347° |
| 2026-05-07 17:34 | 13.92302 | 33.18692 | 39743 ft | 490 kts | 347° |
| 2026-05-07 17:34 | 13.98982 | 33.17556 | 39744 ft | 490 kts | 347° |
| 2026-05-07 17:35 | 14.05711 | 33.16412 | 39743 ft | 490 kts | 347° |
| 2026-05-07 17:35 | 14.12437 | 33.15268 | 39752 ft | 490 kts | 346° |
| 2026-05-07 17:36 | 14.19162 | 33.14123 | 39746 ft | 490 kts | 346° |
| 2026-05-07 17:36 | 14.25880 | 33.12978 | 39746 ft | 489 kts | 346° |
| 2026-05-07 17:37 | 14.32600 | 33.11833 | 39746 ft | 490 kts | 346° |
| 2026-05-07 17:37 | 14.39326 | 33.10686 | 39746 ft | 490 kts | 346° |
| 2026-05-07 17:38 | 14.46049 | 33.09538 | 39748 ft | 490 kts | 346° |
| 2026-05-07 17:38 | 14.52779 | 33.08389 | 39749 ft | 490 kts | 346° |
| 2026-05-07 17:39 | 14.59509 | 33.07239 | 39753 ft | 490 kts | 346° |
| 2026-05-07 17:39 | 14.66241 | 33.06088 | 39754 ft | 490 kts | 346° |
| 2026-05-07 17:40 | 14.72971 | 33.04937 | 39765 ft | 490 kts | 346° |
| 2026-05-07 17:40 | 14.79709 | 33.03783 | 39757 ft | 491 kts | 346° |
| 2026-05-07 17:41 | 14.86455 | 33.02627 | 39760 ft | 491 kts | 346° |
| 2026-05-07 17:41 | 14.93200 | 33.01471 | 39760 ft | 491 kts | 346° |
| 2026-05-07 17:42 | 14.99945 | 33.00314 | 39763 ft | 491 kts | 346° |
| 2026-05-07 17:42 | 15.06647 | 32.99164 | 39767 ft | 492 kts | 346° |
| 2026-05-07 17:43 | 15.13396 | 32.98005 | 39765 ft | 492 kts | 346° |
| 2026-05-07 17:43 | 15.20154 | 32.96843 | 39766 ft | 492 kts | 346° |
| 2026-05-07 17:44 | 15.26909 | 32.95682 | 39771 ft | 492 kts | 346° |
| 2026-05-07 17:44 | 15.33666 | 32.94519 | 39771 ft | 492 kts | 346° |
| 2026-05-07 17:45 | 15.40420 | 32.93356 | 39777 ft | 492 kts | 346° |
| 2026-05-07 17:45 | 15.47176 | 32.92192 | 39777 ft | 492 kts | 346° |
| 2026-05-07 17:46 | 15.53934 | 32.91027 | 39779 ft | 492 kts | 346° |
| 2026-05-07 17:46 | 15.60691 | 32.89861 | 39779 ft | 492 kts | 346° |
| 2026-05-07 17:47 | 15.67448 | 32.88695 | 39788 ft | 493 kts | 345° |
| 2026-05-07 17:47 | 15.74215 | 32.87525 | 39785 ft | 493 kts | 345° |
| 2026-05-07 17:48 | 15.80984 | 32.86355 | 39785 ft | 493 kts | 345° |
| 2026-05-07 17:48 | 15.87754 | 32.85184 | 39785 ft | 493 kts | 345° |
| 2026-05-07 17:49 | 15.94522 | 32.84013 | 39806 ft | 493 kts | 345° |
| 2026-05-07 17:49 | 16.01292 | 32.82840 | 39793 ft | 494 kts | 345° |
| 2026-05-07 17:50 | 16.08072 | 32.81664 | 39791 ft | 494 kts | 345° |
| 2026-05-07 17:50 | 16.14804 | 32.80496 | 39797 ft | 494 kts | 345° |
| 2026-05-07 17:51 | 16.21582 | 32.79320 | 39798 ft | 494 kts | 345° |
| 2026-05-07 17:51 | 16.28362 | 32.78142 | 39801 ft | 494 kts | 345° |
| 2026-05-07 17:52 | 16.35153 | 32.76962 | 39796 ft | 495 kts | 345° |
| 2026-05-07 17:52 | 16.41940 | 32.75781 | 39795 ft | 495 kts | 345° |
| 2026-05-07 17:53 | 16.48730 | 32.74599 | 39795 ft | 495 kts | 345° |
| 2026-05-07 17:53 | 16.55516 | 32.73417 | 39810 ft | 494 kts | 345° |
| 2026-05-07 17:54 | 16.62308 | 32.72233 | 39804 ft | 495 kts | 345° |
| 2026-05-07 17:54 | 16.69104 | 32.71047 | 39806 ft | 495 kts | 345° |
| 2026-05-07 17:55 | 16.75907 | 32.69859 | 39811 ft | 495 kts | 345° |
| 2026-05-07 17:55 | 16.82661 | 32.68680 | 39811 ft | 495 kts | 345° |
| 2026-05-07 17:56 | 16.89468 | 32.67490 | 39810 ft | 496 kts | 345° |
| 2026-05-07 17:56 | 16.96275 | 32.66298 | 39818 ft | 496 kts | 345° |
| 2026-05-07 17:57 | 17.01939 | 32.65307 | 39806 ft | 496 kts | 345° |
| 2026-05-07 17:57 | 17.09900 | 32.63912 | 39812 ft | 496 kts | 345° |
| 2026-05-07 17:58 | 17.16715 | 32.62717 | 39830 ft | 496 kts | 345° |
| 2026-05-07 17:58 | 17.23531 | 32.61521 | 39828 ft | 497 kts | 345° |
| 2026-05-07 17:59 | 17.30343 | 32.60325 | 39821 ft | 496 kts | 345° |
| 2026-05-07 17:59 | 17.37147 | 32.59130 | 39819 ft | 496 kts | 345° |
| 2026-05-07 18:00 | 17.42801 | 32.58135 | 39823 ft | 496 kts | 345° |
| 2026-05-07 18:00 | 17.49606 | 32.56937 | 39829 ft | 496 kts | 344° |
| 2026-05-07 18:01 | 17.56413 | 32.55738 | 39823 ft | 496 kts | 344° |
| 2026-05-07 18:01 | 17.63217 | 32.54539 | 39830 ft | 496 kts | 344° |
| 2026-05-07 18:02 | 17.73425 | 32.52738 | 39832 ft | 496 kts | 344° |
| 2026-05-07 18:03 | 17.80227 | 32.51537 | 39836 ft | 496 kts | 344° |
| 2026-05-07 18:03 | 17.86982 | 32.50343 | 39831 ft | 496 kts | 344° |
| 2026-05-07 18:04 | 17.93783 | 32.49140 | 39834 ft | 496 kts | 344° |
| 2026-05-07 18:04 | 18.00586 | 32.47936 | 39838 ft | 495 kts | 344° |
| 2026-05-07 18:05 | 18.07380 | 32.46733 | 39859 ft | 495 kts | 344° |
| 2026-05-07 18:05 | 18.14181 | 32.45527 | 39840 ft | 495 kts | 344° |
| 2026-05-07 18:06 | 18.20979 | 32.44321 | 39843 ft | 495 kts | 344° |
| 2026-05-07 18:06 | 18.27779 | 32.43113 | 39843 ft | 495 kts | 344° |
| 2026-05-07 18:07 | 18.34576 | 32.41905 | 39839 ft | 495 kts | 344° |
| 2026-05-07 18:07 | 18.41376 | 32.40696 | 39842 ft | 496 kts | 344° |
| 2026-05-07 18:08 | 18.48175 | 32.39486 | 39841 ft | 495 kts | 344° |
| 2026-05-07 18:08 | 18.54972 | 32.38275 | 39841 ft | 495 kts | 344° |
| 2026-05-07 18:09 | 18.61768 | 32.37064 | 39845 ft | 495 kts | 344° |
| 2026-05-07 18:09 | 18.68564 | 32.35851 | 39841 ft | 495 kts | 344° |
| 2026-05-07 18:10 | 18.75355 | 32.34639 | 39853 ft | 495 kts | 344° |
| 2026-05-07 18:10 | 18.82140 | 32.33427 | 39845 ft | 494 kts | 344° |
| 2026-05-07 18:11 | 18.88871 | 32.32223 | 39843 ft | 494 kts | 344° |
| 2026-05-07 18:11 | 18.95645 | 32.31010 | 39846 ft | 494 kts | 344° |
| 2026-05-07 18:12 | 19.02410 | 32.29798 | 39848 ft | 493 kts | 344° |
| 2026-05-07 18:12 | 19.09162 | 32.28588 | 39845 ft | 492 kts | 343° |
| 2026-05-07 18:13 | 19.15909 | 32.27377 | 39852 ft | 492 kts | 343° |
| 2026-05-07 18:13 | 19.22660 | 32.26164 | 39849 ft | 492 kts | 343° |
| 2026-05-07 18:14 | 19.29409 | 32.24951 | 39863 ft | 492 kts | 344° |
| 2026-05-07 18:14 | 19.36137 | 32.23741 | 39862 ft | 490 kts | 344° |
| 2026-05-07 18:15 | 19.42850 | 32.22533 | 39858 ft | 489 kts | 344° |
| 2026-05-07 18:15 | 19.49566 | 32.21322 | 39858 ft | 489 kts | 344° |
| 2026-05-07 18:16 | 19.56279 | 32.20111 | 39865 ft | 489 kts | 344° |
| 2026-05-07 18:16 | 19.62980 | 32.18902 | 39869 ft | 487 kts | 344° |
| 2026-05-07 18:17 | 19.69648 | 32.17699 | 39875 ft | 486 kts | 344° |
| 2026-05-07 18:17 | 19.76268 | 32.16501 | 39884 ft | 486 kts | 344° |
| 2026-05-07 18:18 | 19.82931 | 32.15294 | 39881 ft | 486 kts | 344° |
| 2026-05-07 18:18 | 19.89592 | 32.14087 | 39891 ft | 485 kts | 344° |
| 2026-05-07 18:19 | 19.96221 | 32.12887 | 39888 ft | 482 kts | 344° |
| 2026-05-07 18:19 | 20.02837 | 32.11687 | 39889 ft | 482 kts | 344° |
| 2026-05-07 18:20 | 20.09450 | 32.10485 | 39889 ft | 482 kts | 344° |
| 2026-05-07 18:20 | 20.16066 | 32.09282 | 39913 ft | 482 kts | 344° |
| 2026-05-07 18:21 | 20.22667 | 32.08082 | 39900 ft | 480 kts | 345° |
| 2026-05-07 18:21 | 20.29243 | 32.06887 | 39906 ft | 478 kts | 345° |
| 2026-05-07 18:22 | 20.35786 | 32.05697 | 39904 ft | 476 kts | 345° |
| 2026-05-07 18:22 | 20.42307 | 32.04506 | 39906 ft | 475 kts | 345° |
| 2026-05-07 18:23 | 20.48830 | 32.03313 | 39914 ft | 475 kts | 345° |
| 2026-05-07 18:23 | 20.55330 | 32.02126 | 39911 ft | 474 kts | 345° |
| 2026-05-07 18:24 | 20.61824 | 32.00938 | 39916 ft | 473 kts | 345° |
| 2026-05-07 18:24 | 20.68318 | 31.99750 | 39916 ft | 474 kts | 345° |
| 2026-05-07 18:25 | 20.74814 | 31.98560 | 39921 ft | 474 kts | 345° |
| 2026-05-07 18:25 | 20.81304 | 31.97370 | 39923 ft | 473 kts | 345° |
| 2026-05-07 18:26 | 20.87741 | 31.96190 | 39922 ft | 472 kts | 345° |
| 2026-05-07 18:26 | 20.94214 | 31.95001 | 39929 ft | 472 kts | 345° |
| 2026-05-07 18:27 | 21.00691 | 31.93810 | 39937 ft | 472 kts | 345° |
| 2026-05-07 18:27 | 21.07210 | 31.92611 | 39939 ft | 472 kts | 345° |
| 2026-05-07 18:28 | 21.13678 | 31.91421 | 39935 ft | 471 kts | 345° |
| 2026-05-07 18:28 | 21.20138 | 31.90230 | 39936 ft | 471 kts | 345° |
| 2026-05-07 18:29 | 21.26553 | 31.89047 | 39931 ft | 471 kts | 345° |
| 2026-05-07 18:29 | 21.33013 | 31.87854 | 39934 ft | 471 kts | 345° |
| 2026-05-07 18:30 | 21.39473 | 31.86660 | 39934 ft | 471 kts | 345° |
| 2026-05-07 18:30 | 21.45933 | 31.85466 | 39934 ft | 471 kts | 345° |
| 2026-05-07 18:31 | 21.52394 | 31.84269 | 39937 ft | 471 kts | 345° |
| 2026-05-07 18:31 | 21.58856 | 31.83072 | 39937 ft | 471 kts | 345° |
| 2026-05-07 18:32 | 21.65316 | 31.81875 | 39947 ft | 471 kts | 345° |
| 2026-05-07 18:32 | 21.71752 | 31.80681 | 39938 ft | 469 kts | 345° |
| 2026-05-07 18:33 | 21.78176 | 31.79490 | 39937 ft | 468 kts | 345° |
| 2026-05-07 18:33 | 21.84563 | 31.78303 | 39935 ft | 465 kts | 345° |
| 2026-05-07 18:34 | 21.90928 | 31.77117 | 39937 ft | 464 kts | 345° |
| 2026-05-07 18:34 | 21.97275 | 31.75934 | 39930 ft | 460 kts | 345° |
| 2026-05-07 18:35 | 22.03544 | 31.74767 | 39942 ft | 456 kts | 345° |
| 2026-05-07 18:35 | 22.09746 | 31.73608 | 39941 ft | 456 kts | 345° |
| 2026-05-07 18:36 | 22.15989 | 31.72440 | 39930 ft | 456 kts | 345° |
| 2026-05-07 18:36 | 22.22239 | 31.71272 | 39949 ft | 456 kts | 345° |
| 2026-05-07 18:37 | 22.28469 | 31.70107 | 39939 ft | 453 kts | 345° |
| 2026-05-07 18:37 | 22.34678 | 31.68944 | 39939 ft | 453 kts | 345° |
| 2026-05-07 18:38 | 22.40882 | 31.67780 | 39940 ft | 453 kts | 345° |
| 2026-05-07 18:38 | 22.47088 | 31.66616 | 39936 ft | 453 kts | 345° |
| 2026-05-07 18:39 | 22.53294 | 31.65450 | 39943 ft | 452 kts | 345° |
| 2026-05-07 18:39 | 22.59490 | 31.64286 | 39936 ft | 452 kts | 345° |
| 2026-05-07 18:40 | 22.65683 | 31.63121 | 39941 ft | 452 kts | 345° |
| 2026-05-07 18:40 | 22.71791 | 31.61679 | 39940 ft | 447 kts | 339° |
| 2026-05-07 18:41 | 22.77757 | 31.59786 | 39942 ft | 446 kts | 338° |
| 2026-05-07 18:41 | 22.83691 | 31.57809 | 39942 ft | 446 kts | 337° |
| 2026-05-07 18:42 | 22.89581 | 31.55834 | 39940 ft | 446 kts | 337° |
| 2026-05-07 18:42 | 22.95512 | 31.53853 | 39941 ft | 446 kts | 338° |
| 2026-05-07 18:43 | 23.01444 | 31.51876 | 39940 ft | 446 kts | 338° |
| 2026-05-07 18:43 | 23.07373 | 31.49901 | 39944 ft | 445 kts | 338° |
| 2026-05-07 18:44 | 23.13294 | 31.47926 | 39947 ft | 445 kts | 338° |
| 2026-05-07 18:44 | 23.19204 | 31.45953 | 39943 ft | 444 kts | 338° |
| 2026-05-07 18:45 | 23.25106 | 31.43979 | 39944 ft | 444 kts | 338° |
| 2026-05-07 18:45 | 23.31009 | 31.42004 | 39950 ft | 444 kts | 338° |
| 2026-05-07 18:46 | 23.36913 | 31.40027 | 39952 ft | 444 kts | 338° |
| 2026-05-07 18:46 | 23.42814 | 31.38048 | 39957 ft | 443 kts | 338° |
| 2026-05-07 18:47 | 23.48707 | 31.36072 | 39952 ft | 443 kts | 338° |
| 2026-05-07 18:47 | 23.54593 | 31.34095 | 39955 ft | 443 kts | 338° |
| 2026-05-07 18:48 | 23.60478 | 31.32116 | 39954 ft | 443 kts | 338° |
| 2026-05-07 18:48 | 23.66363 | 31.30136 | 39959 ft | 443 kts | 338° |
| 2026-05-07 18:49 | 23.72246 | 31.28155 | 39968 ft | 442 kts | 338° |
| 2026-05-07 18:49 | 23.78111 | 31.26178 | 39960 ft | 441 kts | 338° |
| 2026-05-07 18:50 | 23.83973 | 31.24200 | 39955 ft | 441 kts | 338° |
| 2026-05-07 18:50 | 23.88839 | 31.22557 | 39963 ft | 440 kts | 338° |
| 2026-05-07 18:51 | 23.95637 | 31.20259 | 39962 ft | 440 kts | 338° |
| 2026-05-07 18:51 | 24.01480 | 31.18281 | 39964 ft | 439 kts | 338° |
| 2026-05-07 18:52 | 24.06366 | 31.16627 | 39969 ft | 438 kts | 338° |
| 2026-05-07 18:52 | 24.12151 | 31.14665 | 39969 ft | 438 kts | 338° |
| 2026-05-07 18:53 | 24.18012 | 31.12676 | 39967 ft | 438 kts | 338° |
| 2026-05-07 18:53 | 24.23793 | 31.10713 | 39968 ft | 438 kts | 338° |
| 2026-05-07 18:54 | 24.29618 | 31.08733 | 39969 ft | 438 kts | 338° |
| 2026-05-07 18:54 | 24.35439 | 31.06752 | 39971 ft | 438 kts | 338° |
| 2026-05-07 18:55 | 24.41262 | 31.04769 | 39973 ft | 438 kts | 338° |
| 2026-05-07 18:55 | 24.47084 | 31.02784 | 39974 ft | 438 kts | 338° |
| 2026-05-07 18:56 | 24.52906 | 31.00797 | 39976 ft | 438 kts | 338° |
| 2026-05-07 18:56 | 24.58728 | 30.98808 | 39985 ft | 438 kts | 338° |
| 2026-05-07 18:57 | 24.64540 | 30.96821 | 39976 ft | 437 kts | 338° |
| 2026-05-07 18:57 | 24.70348 | 30.94833 | 39973 ft | 437 kts | 338° |
| 2026-05-07 18:58 | 24.76162 | 30.92841 | 39977 ft | 437 kts | 338° |
| 2026-05-07 18:58 | 24.81972 | 30.90848 | 39980 ft | 437 kts | 338° |
| 2026-05-07 18:59 | 24.87782 | 30.88854 | 39998 ft | 437 kts | 338° |
| 2026-05-07 18:59 | 24.93580 | 30.86862 | 39979 ft | 436 kts | 338° |
| 2026-05-07 19:00 | 24.99370 | 30.84871 | 39978 ft | 436 kts | 338° |
| 2026-05-07 19:00 | 25.05158 | 30.82878 | 39982 ft | 436 kts | 338° |
| 2026-05-07 19:01 | 25.10905 | 30.80897 | 39982 ft | 436 kts | 338° |
| 2026-05-07 19:01 | 25.16693 | 30.78900 | 39993 ft | 436 kts | 338° |
| 2026-05-07 19:02 | 25.22472 | 30.76905 | 39979 ft | 435 kts | 338° |
| 2026-05-07 19:02 | 25.28281 | 30.74898 | 39979 ft | 434 kts | 338° |
| 2026-05-07 19:03 | 25.34051 | 30.72901 | 39973 ft | 434 kts | 338° |
| 2026-05-07 19:03 | 25.39781 | 30.70916 | 39966 ft | 435 kts | 338° |
| 2026-05-07 19:04 | 25.45551 | 30.68915 | 39996 ft | 435 kts | 338° |
| 2026-05-07 19:04 | 25.51304 | 30.66913 | 39958 ft | 432 kts | 338° |
| 2026-05-07 19:05 | 25.57033 | 30.64913 | 39968 ft | 432 kts | 338° |
| 2026-05-07 19:05 | 25.62763 | 30.62909 | 39960 ft | 432 kts | 338° |
| 2026-05-07 19:06 | 25.68493 | 30.60906 | 39979 ft | 432 kts | 338° |
| 2026-05-07 19:06 | 25.77085 | 30.57902 | 40002 ft | 431 kts | 338° |
| 2026-05-07 19:07 | 25.82769 | 30.55911 | 40001 ft | 430 kts | 338° |
| 2026-05-07 19:07 | 25.88486 | 30.53907 | 40017 ft | 430 kts | 338° |
| 2026-05-07 19:08 | 25.94201 | 30.51901 | 40020 ft | 430 kts | 338° |
| 2026-05-07 19:08 | 25.99907 | 30.49896 | 40048 ft | 430 kts | 338° |
| 2026-05-07 19:09 | 26.05613 | 30.47889 | 40052 ft | 429 kts | 339° |
| 2026-05-07 19:09 | 26.11297 | 30.45889 | 40052 ft | 428 kts | 339° |
| 2026-05-07 19:10 | 26.16934 | 30.43902 | 40053 ft | 428 kts | 339° |
| 2026-05-07 19:10 | 26.22606 | 30.41901 | 40056 ft | 428 kts | 339° |
| 2026-05-07 19:11 | 26.28278 | 30.39898 | 40054 ft | 428 kts | 339° |
| 2026-05-07 19:11 | 26.33948 | 30.37894 | 40074 ft | 427 kts | 339° |
| 2026-05-07 19:12 | 26.39598 | 30.35895 | 40060 ft | 425 kts | 339° |
| 2026-05-07 19:12 | 26.45236 | 30.33898 | 40062 ft | 425 kts | 339° |
| 2026-05-07 19:13 | 26.50867 | 30.31880 | 40061 ft | 425 kts | 339° |
| 2026-05-07 19:13 | 26.56483 | 30.29814 | 40068 ft | 425 kts | 338° |
| 2026-05-07 19:14 | 26.62093 | 30.27738 | 40077 ft | 425 kts | 339° |
| 2026-05-07 19:14 | 26.67702 | 30.25665 | 40072 ft | 424 kts | 339° |
| 2026-05-07 19:15 | 26.73306 | 30.23596 | 40073 ft | 424 kts | 339° |
| 2026-05-07 19:15 | 26.78908 | 30.21524 | 40075 ft | 424 kts | 339° |
| 2026-05-07 19:16 | 26.84507 | 30.19448 | 40073 ft | 424 kts | 339° |
| 2026-05-07 19:16 | 26.90106 | 30.17370 | 40099 ft | 424 kts | 339° |
| 2026-05-07 19:17 | 26.95687 | 30.15296 | 40081 ft | 421 kts | 339° |
| 2026-05-07 19:17 | 27.01250 | 30.13227 | 40081 ft | 421 kts | 339° |
| 2026-05-07 19:18 | 27.06773 | 30.11171 | 40064 ft | 421 kts | 339° |
| 2026-05-07 19:18 | 27.12327 | 30.09101 | 40083 ft | 421 kts | 339° |
| 2026-05-07 19:19 | 27.17881 | 30.07029 | 40083 ft | 420 kts | 339° |
| 2026-05-07 19:19 | 27.23433 | 30.04956 | 40083 ft | 420 kts | 339° |
| 2026-05-07 19:20 | 27.28985 | 30.02880 | 40083 ft | 420 kts | 339° |
| 2026-05-07 19:20 | 27.34536 | 30.00803 | 40083 ft | 420 kts | 339° |
| 2026-05-07 19:21 | 27.40087 | 29.98723 | 40083 ft | 420 kts | 339° |
| 2026-05-07 19:21 | 27.45635 | 29.96642 | 40088 ft | 420 kts | 339° |
| 2026-05-07 19:22 | 27.51171 | 29.94563 | 40082 ft | 418 kts | 340° |
| 2026-05-07 19:22 | 27.56670 | 29.92497 | 40086 ft | 416 kts | 340° |
| 2026-05-07 19:23 | 27.62160 | 29.90432 | 40085 ft | 416 kts | 340° |
| 2026-05-07 19:23 | 27.67650 | 29.88363 | 40089 ft | 416 kts | 340° |
| 2026-05-07 19:24 | 27.73138 | 29.86294 | 40088 ft | 416 kts | 340° |
| 2026-05-07 19:24 | 27.78592 | 29.84235 | 40088 ft | 415 kts | 340° |
| 2026-05-07 19:25 | 27.84042 | 29.82176 | 40080 ft | 412 kts | 340° |
| 2026-05-07 19:25 | 27.89486 | 29.80117 | 40089 ft | 413 kts | 340° |
| 2026-05-07 19:26 | 27.94930 | 29.78056 | 40090 ft | 413 kts | 340° |
| 2026-05-07 19:26 | 28.00378 | 29.75991 | 40089 ft | 413 kts | 340° |
| 2026-05-07 19:27 | 28.05823 | 29.73924 | 40097 ft | 412 kts | 340° |
| 2026-05-07 19:27 | 28.11238 | 29.71868 | 40084 ft | 409 kts | 340° |
| 2026-05-07 19:28 | 28.16630 | 29.69818 | 40093 ft | 409 kts | 340° |
| 2026-05-07 19:28 | 28.22025 | 29.67764 | 40093 ft | 409 kts | 340° |
| 2026-05-07 19:29 | 28.27418 | 29.65709 | 40088 ft | 409 kts | 340° |
| 2026-05-07 19:29 | 28.32813 | 29.63650 | 40104 ft | 409 kts | 340° |
| 2026-05-07 19:30 | 28.38186 | 29.61599 | 40088 ft | 406 kts | 340° |
| 2026-05-07 19:30 | 28.43534 | 29.59555 | 40081 ft | 405 kts | 340° |
| 2026-05-07 19:31 | 28.48874 | 29.57511 | 40082 ft | 405 kts | 340° |
| 2026-05-07 19:31 | 28.54220 | 29.55462 | 40090 ft | 405 kts | 340° |
| 2026-05-07 19:32 | 28.59566 | 29.53412 | 40081 ft | 405 kts | 340° |
| 2026-05-07 19:32 | 28.64908 | 29.51362 | 40099 ft | 404 kts | 340° |
| 2026-05-07 19:33 | 28.70228 | 29.49317 | 40083 ft | 403 kts | 340° |
| 2026-05-07 19:33 | 28.75543 | 29.47272 | 40089 ft | 403 kts | 340° |
| 2026-05-07 19:34 | 28.80860 | 29.45223 | 40098 ft | 403 kts | 340° |
| 2026-05-07 19:34 | 28.86178 | 29.43173 | 40091 ft | 403 kts | 340° |
| 2026-05-07 19:35 | 28.91454 | 29.41136 | 40098 ft | 402 kts | 340° |
| 2026-05-07 19:35 | 28.96734 | 29.39096 | 40095 ft | 400 kts | 340° |
| 2026-05-07 19:36 | 29.02001 | 29.37059 | 40093 ft | 400 kts | 340° |
| 2026-05-07 19:36 | 29.07268 | 29.35019 | 40101 ft | 400 kts | 340° |
| 2026-05-07 19:37 | 29.12637 | 29.33363 | 40100 ft | 401 kts | 349° |
| 2026-05-07 19:37 | 29.18230 | 29.32950 | 40110 ft | 403 kts | 355° |
| 2026-05-07 19:38 | 29.23834 | 29.32882 | 40102 ft | 402 kts | 356° |
| 2026-05-07 19:38 | 29.29431 | 29.32877 | 40105 ft | 402 kts | 356° |
| 2026-05-07 19:39 | 29.35026 | 29.32857 | 40103 ft | 402 kts | 356° |
| 2026-05-07 19:39 | 29.39676 | 29.32827 | 40106 ft | 402 kts | 356° |
| 2026-05-07 19:40 | 29.46210 | 29.32778 | 40102 ft | 401 kts | 356° |
| 2026-05-07 19:40 | 29.51775 | 29.32736 | 40106 ft | 400 kts | 356° |
| 2026-05-07 19:41 | 29.56402 | 29.32701 | 40110 ft | 400 kts | 356° |
| 2026-05-07 19:41 | 29.61966 | 29.32658 | 40109 ft | 400 kts | 356° |
| 2026-05-07 19:42 | 29.67532 | 29.32617 | 40126 ft | 400 kts | 355° |
| 2026-05-07 19:42 | 29.73087 | 29.32576 | 40106 ft | 398 kts | 356° |
| 2026-05-07 19:43 | 29.78625 | 29.32534 | 40107 ft | 398 kts | 355° |
| 2026-05-07 19:43 | 29.84163 | 29.32492 | 40109 ft | 398 kts | 355° |
| 2026-05-07 19:44 | 29.89700 | 29.32450 | 40116 ft | 398 kts | 356° |
| 2026-05-07 19:44 | 29.95240 | 29.32408 | 40116 ft | 398 kts | 356° |
| 2026-05-07 19:45 | 30.00779 | 29.32366 | 40116 ft | 398 kts | 355° |
| 2026-05-07 19:45 | 30.06319 | 29.32324 | 40110 ft | 398 kts | 355° |
| 2026-05-07 19:46 | 30.11858 | 29.32282 | 40117 ft | 398 kts | 355° |
| 2026-05-07 19:46 | 30.17397 | 29.32240 | 40125 ft | 398 kts | 355° |
| 2026-05-07 19:47 | 30.22928 | 29.32168 | 40111 ft | 396 kts | 353° |
| 2026-05-07 19:47 | 30.28312 | 29.31088 | 40111 ft | 392 kts | 341° |
| 2026-05-07 19:48 | 30.33174 | 29.28403 | 40108 ft | 392 kts | 327° |
| 2026-05-07 19:48 | 30.37427 | 29.24372 | 40104 ft | 393 kts | 324° |
| 2026-05-07 19:49 | 30.42046 | 29.21011 | 40113 ft | 393 kts | 335° |
| 2026-05-07 19:49 | 30.47250 | 29.19219 | 40123 ft | 396 kts | 349° |
| 2026-05-07 19:50 | 30.52785 | 29.19317 | 40114 ft | 403 kts | 2° |
| 2026-05-07 19:50 | 30.58343 | 29.19722 | 40111 ft | 400 kts | 357° |
| 2026-05-07 19:51 | 30.63901 | 29.19838 | 40129 ft | 399 kts | 356° |
| 2026-05-07 19:51 | 30.69458 | 29.19848 | 40143 ft | 399 kts | 356° |
| 2026-05-07 19:52 | 30.75005 | 29.19814 | 40129 ft | 398 kts | 355° |
| 2026-05-07 19:52 | 30.80537 | 29.19775 | 40132 ft | 397 kts | 355° |
| 2026-05-07 19:53 | 30.86067 | 29.19739 | 40131 ft | 397 kts | 355° |
| 2026-05-07 19:53 | 30.91597 | 29.19705 | 40145 ft | 398 kts | 355° |
| 2026-05-07 19:54 | 30.97129 | 29.19673 | 40139 ft | 397 kts | 355° |
| 2026-05-07 19:54 | 31.02650 | 29.19641 | 40137 ft | 397 kts | 355° |
| 2026-05-07 19:55 | 31.08170 | 29.19608 | 40137 ft | 397 kts | 355° |
| 2026-05-07 19:55 | 31.13688 | 29.19575 | 40136 ft | 397 kts | 355° |
| 2026-05-07 19:56 | 31.19207 | 29.19543 | 40162 ft | 397 kts | 355° |
| 2026-05-07 19:56 | 31.24711 | 29.19511 | 40140 ft | 394 kts | 355° |
| 2026-05-07 19:57 | 31.30193 | 29.19479 | 40140 ft | 394 kts | 355° |
| 2026-05-07 19:57 | 31.35676 | 29.19446 | 40141 ft | 394 kts | 355° |
| 2026-05-07 19:58 | 31.41127 | 29.19589 | 40141 ft | 397 kts | 360° |
| 2026-05-07 19:58 | 31.46625 | 29.20227 | 40141 ft | 397 kts | 1° |
| 2026-05-07 19:59 | 31.52102 | 29.20958 | 40144 ft | 396 kts | 1° |
| 2026-05-07 19:59 | 31.57572 | 29.21704 | 40144 ft | 396 kts | 1° |
| 2026-05-07 20:00 | 31.63046 | 29.22443 | 40145 ft | 396 kts | 1° |
| 2026-05-07 20:00 | 31.68517 | 29.23178 | 40154 ft | 395 kts | 1° |
| 2026-05-07 20:01 | 31.73975 | 29.23911 | 40145 ft | 394 kts | 1° |
| 2026-05-07 20:01 | 31.79424 | 29.24642 | 40149 ft | 394 kts | 1° |
| 2026-05-07 20:02 | 31.84873 | 29.25375 | 40151 ft | 394 kts | 1° |
| 2026-05-07 20:02 | 31.90317 | 29.26108 | 40165 ft | 394 kts | 1° |
| 2026-05-07 20:03 | 31.95755 | 29.26842 | 40162 ft | 393 kts | 1° |
| 2026-05-07 20:03 | 32.01189 | 29.27575 | 40162 ft | 393 kts | 1° |
| 2026-05-07 20:04 | 32.06623 | 29.28309 | 40162 ft | 393 kts | 1° |
| 2026-05-07 20:04 | 32.12021 | 29.29040 | 40162 ft | 393 kts | 1° |
| 2026-05-07 20:05 | 32.17451 | 29.29574 | 40162 ft | 389 kts | 354° |
| 2026-05-07 20:05 | 32.22748 | 29.28740 | 40162 ft | 382 kts | 342° |
| 2026-05-07 20:06 | 32.27634 | 29.26344 | 40162 ft | 381 kts | 333° |
| 2026-05-07 20:06 | 32.32313 | 29.23394 | 40161 ft | 381 kts | 331° |
| 2026-05-07 20:07 | 32.36952 | 29.20359 | 40165 ft | 381 kts | 331° |
| 2026-05-07 20:07 | 32.41596 | 29.17336 | 40165 ft | 381 kts | 331° |
| 2026-05-07 20:08 | 32.46252 | 29.14329 | 40165 ft | 381 kts | 331° |
| 2026-05-07 20:08 | 32.50911 | 29.11327 | 40165 ft | 381 kts | 331° |
| 2026-05-07 20:09 | 32.55570 | 29.08323 | 40162 ft | 381 kts | 331° |
| 2026-05-07 20:10 | 32.62560 | 29.03808 | 40164 ft | 381 kts | 331° |
| 2026-05-07 20:10 | 32.67219 | 29.00792 | 40177 ft | 381 kts | 331° |
| 2026-05-07 20:11 | 32.71875 | 28.97776 | 40162 ft | 381 kts | 331° |
| 2026-05-07 20:11 | 32.76524 | 28.94760 | 40156 ft | 381 kts | 331° |
| 2026-05-07 20:12 | 32.81185 | 28.91732 | 40162 ft | 382 kts | 331° |
| 2026-05-07 20:12 | 32.85852 | 28.88697 | 40162 ft | 382 kts | 331° |
| 2026-05-07 20:13 | 32.90521 | 28.85658 | 40159 ft | 382 kts | 331° |
| 2026-05-07 20:13 | 32.95188 | 28.82615 | 40159 ft | 383 kts | 331° |
| 2026-05-07 20:14 | 32.99853 | 28.79571 | 40159 ft | 382 kts | 331° |
| 2026-05-07 20:14 | 33.04510 | 28.76528 | 40159 ft | 382 kts | 331° |
| 2026-05-07 20:15 | 33.09165 | 28.73483 | 40158 ft | 382 kts | 331° |
| 2026-05-07 20:15 | 33.13820 | 28.70433 | 40159 ft | 382 kts | 331° |
| 2026-05-07 20:16 | 33.18476 | 28.67380 | 40160 ft | 382 kts | 330° |
| 2026-05-07 20:16 | 33.23135 | 28.64321 | 40162 ft | 383 kts | 330° |
| 2026-05-07 20:17 | 33.27817 | 28.61243 | 40162 ft | 384 kts | 330° |
| 2026-05-07 20:17 | 33.32501 | 28.58160 | 40162 ft | 384 kts | 330° |
| 2026-05-07 20:18 | 33.37151 | 28.55095 | 40165 ft | 384 kts | 330° |
| 2026-05-07 20:18 | 33.41832 | 28.52006 | 40165 ft | 384 kts | 330° |
| 2026-05-07 20:19 | 33.46515 | 28.48912 | 40162 ft | 384 kts | 330° |
| 2026-05-07 20:19 | 33.51196 | 28.45815 | 40162 ft | 384 kts | 330° |
| 2026-05-07 20:20 | 33.55877 | 28.42715 | 40163 ft | 384 kts | 330° |
| 2026-05-07 20:20 | 33.60556 | 28.39612 | 40164 ft | 384 kts | 330° |
| 2026-05-07 20:21 | 33.65234 | 28.36506 | 40158 ft | 384 kts | 330° |
| 2026-05-07 20:21 | 33.69930 | 28.33384 | 40163 ft | 387 kts | 330° |
| 2026-05-07 20:22 | 33.74644 | 28.30246 | 40159 ft | 388 kts | 330° |
| 2026-05-07 20:22 | 33.79362 | 28.27101 | 40159 ft | 388 kts | 330° |
| 2026-05-07 20:23 | 33.84069 | 28.23940 | 40161 ft | 387 kts | 330° |
| 2026-05-07 20:23 | 33.88768 | 28.20766 | 40162 ft | 387 kts | 330° |
| 2026-05-07 20:24 | 33.93465 | 28.17589 | 40164 ft | 387 kts | 330° |
| 2026-05-07 20:24 | 33.98164 | 28.14408 | 40163 ft | 387 kts | 330° |
| 2026-05-07 20:25 | 34.02863 | 28.11225 | 40160 ft | 387 kts | 330° |
| 2026-05-07 20:25 | 34.07562 | 28.08037 | 40171 ft | 387 kts | 330° |
| 2026-05-07 20:26 | 34.12258 | 28.04848 | 40162 ft | 388 kts | 329° |
| 2026-05-07 20:26 | 34.16971 | 28.01643 | 40167 ft | 389 kts | 329° |
| 2026-05-07 20:27 | 34.21691 | 27.98429 | 40166 ft | 389 kts | 329° |
| 2026-05-07 20:27 | 34.26412 | 27.95210 | 40158 ft | 390 kts | 329° |
| 2026-05-07 20:28 | 34.31131 | 27.91988 | 40159 ft | 390 kts | 329° |
| 2026-05-07 20:28 | 34.35056 | 27.89305 | 40160 ft | 390 kts | 329° |
| 2026-05-07 20:29 | 34.39774 | 27.86076 | 40159 ft | 389 kts | 329° |
| 2026-05-07 20:29 | 34.44487 | 27.82847 | 40163 ft | 389 kts | 329° |
| 2026-05-07 20:30 | 34.49198 | 27.79614 | 40161 ft | 389 kts | 329° |
| 2026-05-07 20:30 | 34.53908 | 27.76378 | 40161 ft | 389 kts | 329° |
| 2026-05-07 20:31 | 34.58615 | 27.73130 | 40161 ft | 389 kts | 329° |
| 2026-05-07 20:31 | 34.63320 | 27.69876 | 40179 ft | 389 kts | 329° |
| 2026-05-07 20:32 | 34.68016 | 27.66623 | 40159 ft | 388 kts | 329° |
| 2026-05-07 20:32 | 34.72697 | 27.63379 | 40160 ft | 387 kts | 329° |
| 2026-05-07 20:33 | 34.77342 | 27.60154 | 40159 ft | 387 kts | 329° |
| 2026-05-07 20:33 | 34.82021 | 27.56902 | 40162 ft | 387 kts | 329° |
| 2026-05-07 20:34 | 34.86700 | 27.53646 | 40162 ft | 387 kts | 329° |
| 2026-05-07 20:34 | 34.91380 | 27.50385 | 40175 ft | 387 kts | 329° |
| 2026-05-07 20:35 | 34.96047 | 27.47129 | 40152 ft | 386 kts | 329° |
| 2026-05-07 20:35 | 35.00726 | 27.43858 | 40162 ft | 389 kts | 329° |
| 2026-05-07 20:36 | 35.05425 | 27.40570 | 40161 ft | 390 kts | 329° |
| 2026-05-07 20:36 | 35.10129 | 27.37275 | 40159 ft | 390 kts | 329° |
| 2026-05-07 20:37 | 35.14832 | 27.33976 | 40157 ft | 390 kts | 329° |
| 2026-05-07 20:37 | 35.19535 | 27.30673 | 40159 ft | 390 kts | 329° |
| 2026-05-07 20:38 | 35.24237 | 27.27365 | 40160 ft | 390 kts | 329° |
| 2026-05-07 20:38 | 35.28941 | 27.24052 | 40160 ft | 390 kts | 329° |
| 2026-05-07 20:39 | 35.33643 | 27.20735 | 40158 ft | 390 kts | 329° |
| 2026-05-07 20:39 | 35.38345 | 27.17414 | 40157 ft | 390 kts | 329° |
| 2026-05-07 20:40 | 35.43041 | 27.14053 | 40154 ft | 392 kts | 327° |
| 2026-05-07 20:40 | 35.47663 | 27.10478 | 40159 ft | 392 kts | 326° |
| 2026-05-07 20:41 | 35.52207 | 27.06868 | 40156 ft | 391 kts | 326° |
| 2026-05-07 20:41 | 35.56782 | 27.03242 | 40158 ft | 391 kts | 326° |
| 2026-05-07 20:42 | 35.61366 | 26.99623 | 40156 ft | 392 kts | 326° |
| 2026-05-07 20:42 | 35.65953 | 26.96007 | 40156 ft | 392 kts | 326° |
| 2026-05-07 20:43 | 35.70539 | 26.92387 | 40157 ft | 392 kts | 326° |
| 2026-05-07 20:43 | 35.75123 | 26.88762 | 40161 ft | 391 kts | 326° |
| 2026-05-07 20:44 | 35.79695 | 26.85142 | 40155 ft | 391 kts | 326° |
| 2026-05-07 20:44 | 35.84284 | 26.81502 | 40157 ft | 393 kts | 326° |
| 2026-05-07 20:45 | 35.88881 | 26.77852 | 40155 ft | 393 kts | 326° |
| 2026-05-07 20:45 | 35.93479 | 26.74189 | 40158 ft | 393 kts | 326° |
| 2026-05-07 20:46 | 35.98070 | 26.70516 | 40156 ft | 393 kts | 326° |
| 2026-05-07 20:46 | 36.02660 | 26.66837 | 40161 ft | 393 kts | 326° |
| 2026-05-07 20:47 | 36.07234 | 26.63167 | 40163 ft | 391 kts | 326° |
| 2026-05-07 20:47 | 36.11798 | 26.59500 | 40151 ft | 391 kts | 326° |
| 2026-05-07 20:48 | 36.16362 | 26.55828 | 40152 ft | 391 kts | 326° |
| 2026-05-07 20:48 | 36.20943 | 26.52137 | 40161 ft | 394 kts | 326° |
| 2026-05-07 20:49 | 36.25546 | 26.48424 | 40157 ft | 395 kts | 326° |
| 2026-05-07 20:49 | 36.30149 | 26.44706 | 40164 ft | 395 kts | 326° |
| 2026-05-07 20:50 | 36.34745 | 26.40987 | 40163 ft | 394 kts | 326° |
| 2026-05-07 20:50 | 36.39336 | 26.37268 | 40164 ft | 394 kts | 326° |
| 2026-05-07 20:51 | 36.43924 | 26.33545 | 40165 ft | 394 kts | 326° |
| 2026-05-07 20:51 | 36.48512 | 26.29817 | 40164 ft | 394 kts | 326° |
| 2026-05-07 20:52 | 36.53100 | 26.26084 | 40162 ft | 394 kts | 326° |
| 2026-05-07 20:52 | 36.57487 | 26.22003 | 40153 ft | 395 kts | 318° |
| 2026-05-07 20:53 | 36.61472 | 26.17374 | 40149 ft | 395 kts | 316° |
| 2026-05-07 20:53 | 36.65405 | 26.12610 | 40147 ft | 394 kts | 316° |
| 2026-05-07 20:54 | 36.69323 | 26.07829 | 40160 ft | 394 kts | 316° |
| 2026-05-07 20:54 | 36.73249 | 26.03049 | 40162 ft | 395 kts | 316° |
| 2026-05-07 20:55 | 36.77174 | 25.98273 | 40159 ft | 395 kts | 316° |
| 2026-05-07 20:55 | 36.81108 | 25.93485 | 40156 ft | 395 kts | 316° |
| 2026-05-07 20:56 | 36.85056 | 25.88671 | 40162 ft | 398 kts | 316° |
| 2026-05-07 20:56 | 36.89010 | 25.83841 | 40163 ft | 397 kts | 316° |
| 2026-05-07 20:57 | 36.92949 | 25.79024 | 40158 ft | 396 kts | 316° |
| 2026-05-07 20:57 | 36.96876 | 25.74212 | 40154 ft | 395 kts | 316° |
| 2026-05-07 20:58 | 37.00806 | 25.69391 | 40163 ft | 396 kts | 316° |
| 2026-05-07 20:58 | 37.04731 | 25.64566 | 40154 ft | 396 kts | 316° |
| 2026-05-07 20:59 | 37.08660 | 25.59731 | 40154 ft | 397 kts | 315° |
| 2026-05-07 20:59 | 37.12598 | 25.54877 | 40157 ft | 397 kts | 315° |
| 2026-05-07 21:00 | 37.16536 | 25.50016 | 40152 ft | 397 kts | 315° |
| 2026-05-07 21:00 | 37.20465 | 25.45159 | 40154 ft | 396 kts | 315° |
| 2026-05-07 21:01 | 37.24370 | 25.40305 | 40160 ft | 395 kts | 315° |
| 2026-05-07 21:01 | 37.28435 | 25.35666 | 40136 ft | 396 kts | 321° |
| 2026-05-07 21:02 | 37.32872 | 25.31563 | 40127 ft | 396 kts | 322° |
| 2026-05-07 21:02 | 37.37383 | 25.27556 | 40154 ft | 398 kts | 323° |
| 2026-05-07 21:03 | 37.41909 | 25.23557 | 40151 ft | 398 kts | 323° |
| 2026-05-07 21:03 | 37.46431 | 25.19543 | 40160 ft | 397 kts | 322° |
| 2026-05-07 21:04 | 37.50935 | 25.15529 | 40157 ft | 396 kts | 322° |
| 2026-05-07 21:04 | 37.55422 | 25.11520 | 40156 ft | 395 kts | 322° |
| 2026-05-07 21:05 | 37.59908 | 25.07504 | 40153 ft | 395 kts | 322° |
| 2026-05-07 21:05 | 37.64393 | 25.03484 | 40151 ft | 396 kts | 322° |
| 2026-05-07 21:06 | 37.68850 | 24.99485 | 40146 ft | 396 kts | 322° |
| 2026-05-07 21:06 | 37.73335 | 24.95454 | 40160 ft | 396 kts | 322° |
| 2026-05-07 21:07 | 37.77827 | 24.91410 | 40142 ft | 396 kts | 321° |
| 2026-05-07 21:07 | 37.82318 | 24.87363 | 40146 ft | 397 kts | 321° |
| 2026-05-07 21:08 | 37.86812 | 24.83306 | 40137 ft | 396 kts | 321° |
| 2026-05-07 21:08 | 37.91299 | 24.79252 | 40138 ft | 396 kts | 321° |
| 2026-05-07 21:09 | 37.95786 | 24.75194 | 40133 ft | 396 kts | 322° |
| 2026-05-07 21:09 | 38.00262 | 24.71132 | 40133 ft | 395 kts | 321° |
| 2026-05-07 21:10 | 38.04731 | 24.67069 | 40136 ft | 395 kts | 321° |
| 2026-05-07 21:10 | 38.09200 | 24.63002 | 40133 ft | 395 kts | 321° |
| 2026-05-07 21:11 | 38.13669 | 24.58930 | 40132 ft | 395 kts | 321° |
| 2026-05-07 21:11 | 38.20370 | 24.52804 | 40133 ft | 395 kts | 321° |
| 2026-05-07 21:12 | 38.24827 | 24.48713 | 40135 ft | 395 kts | 321° |
| 2026-05-07 21:12 | 38.29279 | 24.44619 | 40130 ft | 395 kts | 321° |
| 2026-05-07 21:13 | 38.33724 | 24.40526 | 40129 ft | 394 kts | 321° |
| 2026-05-07 21:13 | 38.38165 | 24.36429 | 40129 ft | 395 kts | 321° |
| 2026-05-07 21:14 | 38.42616 | 24.32317 | 40129 ft | 396 kts | 321° |
| 2026-05-07 21:14 | 38.47072 | 24.28194 | 40129 ft | 396 kts | 321° |
| 2026-05-07 21:15 | 38.51492 | 24.24097 | 40128 ft | 395 kts | 321° |
| 2026-05-07 21:15 | 38.55942 | 24.19966 | 40135 ft | 395 kts | 320° |
| 2026-05-07 21:16 | 38.60375 | 24.15844 | 40117 ft | 394 kts | 320° |
| 2026-05-07 21:16 | 38.64802 | 24.11721 | 40127 ft | 393 kts | 320° |
| 2026-05-07 21:17 | 38.69223 | 24.07597 | 40126 ft | 393 kts | 320° |
| 2026-05-07 21:17 | 38.72899 | 24.04162 | 40123 ft | 394 kts | 320° |
| 2026-05-07 21:18 | 38.77322 | 24.00025 | 40121 ft | 394 kts | 320° |
| 2026-05-07 21:18 | 38.81746 | 23.95880 | 40130 ft | 394 kts | 320° |
| 2026-05-07 21:19 | 38.86164 | 23.91736 | 40120 ft | 393 kts | 320° |
| 2026-05-07 21:19 | 38.90573 | 23.87592 | 40115 ft | 393 kts | 320° |
| 2026-05-07 21:20 | 38.94981 | 23.83442 | 40119 ft | 393 kts | 320° |
| 2026-05-07 21:20 | 38.99384 | 23.79291 | 40119 ft | 393 kts | 320° |
| 2026-05-07 21:21 | 39.03788 | 23.75132 | 40121 ft | 393 kts | 320° |
| 2026-05-07 21:21 | 39.08163 | 23.70995 | 40115 ft | 393 kts | 319° |
| 2026-05-07 21:22 | 39.12569 | 23.66822 | 40126 ft | 393 kts | 319° |
| 2026-05-07 21:22 | 39.17035 | 23.62744 | 40111 ft | 396 kts | 323° |
| 2026-05-07 21:23 | 39.22063 | 23.59686 | 40110 ft | 402 kts | 331° |
| 2026-05-07 21:23 | 39.27304 | 23.57090 | 40123 ft | 405 kts | 333° |
| 2026-05-07 21:24 | 39.32592 | 23.54576 | 40117 ft | 405 kts | 333° |
| 2026-05-07 21:24 | 39.37882 | 23.52046 | 40113 ft | 406 kts | 332° |
| 2026-05-07 21:25 | 39.43171 | 23.49491 | 40113 ft | 406 kts | 332° |
| 2026-05-07 21:25 | 39.48458 | 23.46933 | 40116 ft | 406 kts | 332° |
| 2026-05-07 21:26 | 39.53744 | 23.44372 | 40116 ft | 406 kts | 332° |
| 2026-05-07 21:26 | 39.59031 | 23.41807 | 40116 ft | 406 kts | 332° |
| 2026-05-07 21:27 | 39.64324 | 23.39234 | 40116 ft | 406 kts | 332° |
| 2026-05-07 21:27 | 39.69619 | 23.36656 | 40112 ft | 406 kts | 332° |
| 2026-05-07 21:28 | 39.74912 | 23.34074 | 40116 ft | 406 kts | 332° |
| 2026-05-07 21:28 | 39.80205 | 23.31486 | 40117 ft | 407 kts | 332° |
| 2026-05-07 21:29 | 39.85504 | 23.28889 | 40113 ft | 407 kts | 332° |
| 2026-05-07 21:29 | 39.90802 | 23.26290 | 40116 ft | 407 kts | 332° |
| 2026-05-07 21:30 | 39.96103 | 23.23685 | 40118 ft | 407 kts | 332° |
| 2026-05-07 21:30 | 40.01402 | 23.21079 | 40125 ft | 407 kts | 331° |
| 2026-05-07 21:31 | 40.06665 | 23.18484 | 40111 ft | 407 kts | 331° |
| 2026-05-07 21:31 | 40.11971 | 23.15865 | 40110 ft | 408 kts | 331° |
| 2026-05-07 21:32 | 40.17278 | 23.13241 | 40108 ft | 408 kts | 331° |
| 2026-05-07 21:32 | 40.22583 | 23.10613 | 40112 ft | 408 kts | 331° |
| 2026-05-07 21:33 | 40.27894 | 23.07977 | 40115 ft | 409 kts | 331° |
| 2026-05-07 21:33 | 40.33218 | 23.05329 | 40119 ft | 410 kts | 331° |
| 2026-05-07 21:34 | 40.38547 | 23.02677 | 40125 ft | 410 kts | 331° |
| 2026-05-07 21:34 | 40.43875 | 23.00017 | 40129 ft | 409 kts | 330° |
| 2026-05-07 21:35 | 40.48952 | 22.96827 | 40130 ft | 403 kts | 325° |
| 2026-05-07 21:35 | 40.53914 | 22.93406 | 40129 ft | 403 kts | 324° |
| 2026-05-07 21:36 | 40.58853 | 22.89932 | 40129 ft | 403 kts | 324° |
| 2026-05-07 21:36 | 40.63791 | 22.86454 | 40124 ft | 403 kts | 324° |
| 2026-05-07 21:37 | 40.68733 | 22.82977 | 40118 ft | 403 kts | 324° |
| 2026-05-07 21:37 | 40.73675 | 22.79500 | 40112 ft | 402 kts | 324° |
| 2026-05-07 21:38 | 40.78616 | 22.76018 | 40102 ft | 403 kts | 324° |
| 2026-05-07 21:38 | 40.83572 | 22.72517 | 40102 ft | 404 kts | 324° |
| 2026-05-07 21:39 | 40.88534 | 22.69009 | 40107 ft | 404 kts | 324° |
| 2026-05-07 21:39 | 40.93493 | 22.65496 | 40108 ft | 405 kts | 324° |
| 2026-05-07 21:40 | 40.98451 | 22.61979 | 40108 ft | 404 kts | 323° |
| 2026-05-07 21:40 | 41.03392 | 22.58467 | 40110 ft | 403 kts | 323° |
| 2026-05-07 21:41 | 41.08298 | 22.54974 | 40116 ft | 403 kts | 323° |
| 2026-05-07 21:41 | 41.13489 | 22.51886 | 40113 ft | 415 kts | 334° |
| 2026-05-07 21:42 | 41.19152 | 22.50182 | 40121 ft | 423 kts | 339° |
| 2026-05-07 21:42 | 41.24978 | 22.48832 | 40117 ft | 426 kts | 340° |
| 2026-05-07 21:43 | 41.30821 | 22.47546 | 40113 ft | 426 kts | 340° |
| 2026-05-07 21:43 | 41.36663 | 22.46236 | 40119 ft | 426 kts | 340° |
| 2026-05-07 21:44 | 41.42507 | 22.44898 | 40118 ft | 427 kts | 339° |
| 2026-05-07 21:44 | 41.48384 | 22.43543 | 40112 ft | 429 kts | 339° |
| 2026-05-07 21:45 | 41.54272 | 22.42184 | 40113 ft | 430 kts | 339° |
| 2026-05-07 21:45 | 41.60164 | 22.40822 | 40131 ft | 430 kts | 339° |
| 2026-05-07 21:46 | 41.66079 | 22.39448 | 40126 ft | 433 kts | 339° |
| 2026-05-07 21:46 | 41.72022 | 22.38070 | 40123 ft | 434 kts | 339° |
| 2026-05-07 21:47 | 41.77970 | 22.36691 | 40123 ft | 434 kts | 339° |
| 2026-05-07 21:47 | 41.83919 | 22.35306 | 40129 ft | 435 kts | 339° |
| 2026-05-07 21:48 | 41.89888 | 22.33912 | 40127 ft | 436 kts | 339° |
| 2026-05-07 21:48 | 41.95863 | 22.32516 | 40127 ft | 436 kts | 339° |
| 2026-05-07 21:49 | 42.01840 | 22.31116 | 40140 ft | 436 kts | 340° |
| 2026-05-07 21:49 | 42.07844 | 22.29704 | 40134 ft | 439 kts | 340° |
| 2026-05-07 21:50 | 42.13863 | 22.28289 | 40139 ft | 439 kts | 340° |
| 2026-05-07 21:50 | 42.19888 | 22.26872 | 40135 ft | 439 kts | 340° |
| 2026-05-07 21:51 | 42.25925 | 22.25454 | 40141 ft | 443 kts | 342° |
| 2026-05-07 21:51 | 42.31943 | 22.23697 | 40140 ft | 439 kts | 335° |
| 2026-05-07 21:52 | 42.37721 | 22.21082 | 40138 ft | 437 kts | 333° |
| 2026-05-07 21:52 | 42.43435 | 22.18311 | 40137 ft | 436 kts | 333° |
| 2026-05-07 21:53 | 42.49140 | 22.15547 | 40133 ft | 440 kts | 333° |
| 2026-05-07 21:53 | 42.54925 | 22.12749 | 40137 ft | 442 kts | 334° |
| 2026-05-07 21:54 | 42.60736 | 22.09944 | 40126 ft | 445 kts | 334° |
| 2026-05-07 21:54 | 42.66577 | 22.07124 | 40124 ft | 446 kts | 334° |
| 2026-05-07 21:55 | 42.72421 | 22.04299 | 40112 ft | 446 kts | 334° |
| 2026-05-07 21:55 | 42.78268 | 22.01466 | 40115 ft | 446 kts | 334° |
| 2026-05-07 21:56 | 42.84111 | 21.98629 | 40122 ft | 446 kts | 334° |
| 2026-05-07 21:56 | 42.89973 | 21.95777 | 40102 ft | 449 kts | 334° |
| 2026-05-07 21:57 | 42.95862 | 21.92906 | 40104 ft | 450 kts | 334° |
| 2026-05-07 21:57 | 43.01753 | 21.90030 | 40094 ft | 450 kts | 334° |
| 2026-05-07 21:58 | 43.07654 | 21.87140 | 40090 ft | 451 kts | 335° |
| 2026-05-07 21:58 | 43.13573 | 21.84238 | 40048 ft | 451 kts | 335° |
| 2026-05-07 21:59 | 43.16517 | 21.82794 | 39826 ft | 448 kts | 335° |
| 2026-05-07 21:59 | 43.19449 | 21.81353 | 39591 ft | 448 kts | 334° |
| 2026-05-07 21:59 | 43.22377 | 21.79912 | 39359 ft | 447 kts | 334° |
| 2026-05-07 21:59 | 43.25306 | 21.78468 | 39131 ft | 447 kts | 334° |
| 2026-05-07 22:00 | 43.28226 | 21.77028 | 38912 ft | 446 kts | 334° |
| 2026-05-07 22:00 | 43.31142 | 21.75588 | 38680 ft | 445 kts | 334° |
| 2026-05-07 22:00 | 43.34037 | 21.74160 | 38435 ft | 438 kts | 334° |
| 2026-05-07 22:00 | 43.36883 | 21.72755 | 38107 ft | 432 kts | 334° |
| 2026-05-07 22:01 | 43.39697 | 21.71363 | 37713 ft | 427 kts | 334° |
| 2026-05-07 22:01 | 43.42480 | 21.69983 | 37320 ft | 423 kts | 334° |
| 2026-05-07 22:01 | 43.45237 | 21.68614 | 36942 ft | 419 kts | 334° |
| 2026-05-07 22:01 | 43.47966 | 21.67258 | 36589 ft | 415 kts | 334° |
| 2026-05-07 22:02 | 43.50676 | 21.65911 | 36199 ft | 414 kts | 334° |
| 2026-05-07 22:02 | 43.53385 | 21.64560 | 35821 ft | 415 kts | 334° |
| 2026-05-07 22:02 | 43.56105 | 21.63203 | 35440 ft | 416 kts | 333° |
| 2026-05-07 22:02 | 43.58831 | 21.61842 | 35045 ft | 417 kts | 333° |
| 2026-05-07 22:03 | 43.61564 | 21.60478 | 34528 ft | 418 kts | 333° |
| 2026-05-07 22:03 | 43.64294 | 21.59115 | 33917 ft | 418 kts | 333° |
| 2026-05-07 22:03 | 43.67014 | 21.57750 | 32941 ft | 425 kts | 334° |
| 2026-05-07 22:03 | 43.69815 | 21.56344 | 31992 ft | 432 kts | 335° |
| 2026-05-07 22:04 | 43.72670 | 21.54918 | 31004 ft | 440 kts | 335° |
| 2026-05-07 22:04 | 43.75600 | 21.53445 | 30281 ft | 443 kts | 336° |
| 2026-05-07 22:04 | 43.78459 | 21.52016 | 29520 ft | 444 kts | 336° |
| 2026-05-07 22:04 | 43.81356 | 21.50564 | 28773 ft | 443 kts | 336° |
| 2026-05-07 22:05 | 43.84251 | 21.49108 | 28043 ft | 442 kts | 336° |
| 2026-05-07 22:05 | 43.87141 | 21.47652 | 27316 ft | 441 kts | 336° |
| 2026-05-07 22:05 | 43.90022 | 21.46199 | 26582 ft | 441 kts | 336° |
| 2026-05-07 22:05 | 43.92904 | 21.44744 | 25860 ft | 441 kts | 335° |
| 2026-05-07 22:06 | 43.95785 | 21.43288 | 25092 ft | 441 kts | 335° |
| 2026-05-07 22:06 | 43.97698 | 21.42320 | 24578 ft | 442 kts | 336° |
| 2026-05-07 22:06 | 44.00589 | 21.40857 | 23807 ft | 442 kts | 336° |
| 2026-05-07 22:06 | 44.03480 | 21.39392 | 22936 ft | 443 kts | 336° |
| 2026-05-07 22:07 | 44.06366 | 21.37929 | 22122 ft | 440 kts | 336° |
| 2026-05-07 22:07 | 44.09232 | 21.36475 | 21360 ft | 437 kts | 336° |
| 2026-05-07 22:07 | 44.12082 | 21.35028 | 20590 ft | 434 kts | 336° |
| 2026-05-07 22:07 | 44.14911 | 21.33589 | 19862 ft | 431 kts | 336° |
| 2026-05-07 22:08 | 44.17705 | 21.32167 | 19149 ft | 426 kts | 336° |
| 2026-05-07 22:08 | 44.20476 | 21.30756 | 18451 ft | 423 kts | 336° |
| 2026-05-07 22:08 | 44.23210 | 21.29362 | 17822 ft | 415 kts | 336° |
| 2026-05-07 22:08 | 44.25912 | 21.27982 | 17075 ft | 411 kts | 336° |
| 2026-05-07 22:09 | 44.28582 | 21.26617 | 16365 ft | 406 kts | 337° |
| 2026-05-07 22:09 | 44.31215 | 21.25250 | 15669 ft | 401 kts | 335° |
| 2026-05-07 22:09 | 44.33633 | 21.23425 | 14969 ft | 391 kts | 323° |
| 2026-05-07 22:09 | 44.35817 | 21.21232 | 14015 ft | 383 kts | 320° |
| 2026-05-07 22:10 | 44.37918 | 21.19003 | 13123 ft | 374 kts | 320° |
| 2026-05-07 22:10 | 44.39959 | 21.16817 | 12307 ft | 364 kts | 320° |
| 2026-05-07 22:10 | 44.41940 | 21.14703 | 11631 ft | 352 kts | 320° |
| 2026-05-07 22:10 | 44.43855 | 21.12652 | 11012 ft | 341 kts | 318° |
| 2026-05-07 22:11 | 44.45471 | 21.10414 | 10871 ft | 314 kts | 306° |
| 2026-05-07 22:11 | 44.46692 | 21.08030 | 10795 ft | 290 kts | 301° |
| 2026-05-07 22:11 | 44.47761 | 21.05748 | 10710 ft | 272 kts | 300° |
| 2026-05-07 22:11 | 44.48759 | 21.03585 | 10607 ft | 258 kts | 300° |
| 2026-05-07 22:12 | 44.49729 | 21.01477 | 10496 ft | 259 kts | 300° |
| 2026-05-07 22:12 | 44.50712 | 20.99337 | 10217 ft | 263 kts | 300° |
| 2026-05-07 22:12 | 44.51714 | 20.97164 | 9748 ft | 268 kts | 300° |
| 2026-05-07 22:12 | 44.52734 | 20.94955 | 9303 ft | 271 kts | 300° |
| 2026-05-07 22:13 | 44.53761 | 20.92733 | 8905 ft | 272 kts | 300° |
| 2026-05-07 22:13 | 44.54791 | 20.90505 | 8507 ft | 272 kts | 300° |
| 2026-05-07 22:13 | 44.55819 | 20.88279 | 8115 ft | 272 kts | 300° |
| 2026-05-07 22:13 | 44.56830 | 20.86087 | 7713 ft | 271 kts | 300° |
| 2026-05-07 22:14 | 44.57851 | 20.83875 | 7321 ft | 270 kts | 300° |
| 2026-05-07 22:14 | 44.58867 | 20.81670 | 6968 ft | 268 kts | 300° |
| 2026-05-07 22:14 | 44.59876 | 20.79480 | 6663 ft | 264 kts | 300° |
| 2026-05-07 22:14 | 44.60852 | 20.77357 | 6451 ft | 252 kts | 301° |
| 2026-05-07 22:15 | 44.61774 | 20.75357 | 6177 ft | 238 kts | 301° |
| 2026-05-07 22:15 | 44.62662 | 20.73422 | 5816 ft | 234 kts | 301° |
| 2026-05-07 22:15 | 44.63550 | 20.71484 | 5399 ft | 238 kts | 301° |
| 2026-05-07 22:15 | 44.64443 | 20.69535 | 5165 ft | 235 kts | 301° |
| 2026-05-07 22:16 | 44.65318 | 20.67625 | 5007 ft | 229 kts | 301° |
| 2026-05-07 22:16 | 44.66174 | 20.65754 | 4952 ft | 226 kts | 301° |
| 2026-05-07 22:16 | 44.67013 | 20.63926 | 4802 ft | 220 kts | 301° |
| 2026-05-07 22:16 | 44.67841 | 20.62117 | 4469 ft | 219 kts | 301° |
| 2026-05-07 22:17 | 44.68662 | 20.60323 | 4158 ft | 217 kts | 301° |
| 2026-05-07 22:17 | 44.69473 | 20.58537 | 4006 ft | 217 kts | 301° |
| 2026-05-07 22:17 | 44.70284 | 20.56742 | 3889 ft | 218 kts | 301° |
| 2026-05-07 22:17 | 44.71092 | 20.54953 | 3626 ft | 213 kts | 301° |
| 2026-05-07 22:18 | 44.71862 | 20.53259 | 3484 ft | 196 kts | 301° |
| 2026-05-07 22:18 | 44.73200 | 20.50331 | 3161 ft | 161 kts | 300° |
| 2026-05-07 22:18 | 44.73768 | 20.49056 | 3020 ft | 149 kts | 299° |
| 2026-05-07 22:19 | 44.74315 | 20.47827 | 2907 ft | 148 kts | 299° |
| 2026-05-07 22:19 | 44.74863 | 20.46594 | 2712 ft | 148 kts | 300° |
| 2026-05-07 22:19 | 44.75405 | 20.45381 | 2519 ft | 149 kts | 300° |
| 2026-05-07 22:19 | 44.75955 | 20.44145 | 2303 ft | 149 kts | 299° |
| 2026-05-07 22:20 | 44.76501 | 20.42915 | 2111 ft | 148 kts | 299° |
| 2026-05-07 22:20 | 44.77051 | 20.41680 | 1911 ft | 149 kts | 300° |
| 2026-05-07 22:20 | 44.77602 | 20.40449 | 1722 ft | 148 kts | 299° |
| 2026-05-07 22:20 | 44.78144 | 20.39226 | 1510 ft | 147 kts | 300° |
| 2026-05-07 22:21 | 44.78690 | 20.38002 | 1318 ft | 147 kts | 300° |
| 2026-05-07 22:21 | 44.79238 | 20.36789 | 1030 ft | 147 kts | 302° |
| 2026-05-07 22:21 | 44.79764 | 20.35589 | 877 ft | 144 kts | 301° |
| 2026-05-07 22:21 | 44.80298 | 20.34382 | 680 ft | 145 kts | 301° |
| 2026-05-07 22:22 | 44.80837 | 20.33182 | 469 ft | 144 kts | 302° |
| 2026-05-07 22:22 | 44.81367 | 20.31984 | 331 ft | 144 kts | 301° |
| 2026-05-07 22:22 | 44.81848 | 20.30906 | 312 ft | 98 kts | 303° |
| 2026-05-07 22:22 | 44.82071 | 20.30419 | 312 ft | 39 kts | 301° |
| 2026-05-07 22:23 | 44.82166 | 20.30089 | 311 ft | 32 kts | 273° |
| 2026-05-07 22:23 | 44.82169 | 20.29799 | 313 ft | 27 kts | 271° |
| 2026-05-07 22:23 | 44.82193 | 20.29639 | 312 ft | 8 kts | 266° |
| 2026-05-07 22:23 | 44.82180 | 20.29612 | 313 ft | 7 kts | 230° |
| 2026-05-07 22:24 | 44.82140 | 20.29552 | 312 ft | 4 kts | 246° |
| 2026-05-07 22:24 | 44.82143 | 20.29535 | 315 ft | 2 kts | 288° |
| 2026-05-07 22:24 | 44.82158 | 20.29494 | 314 ft | 7 kts | 299° |
| 2026-05-07 22:24 | 44.82194 | 20.29409 | 313 ft | 12 kts | 302° |
| 2026-05-07 22:25 | 44.82243 | 20.29296 | 315 ft | 15 kts | 303° |
| 2026-05-07 22:25 | 44.82282 | 20.29169 | 311 ft | 13 kts | 264° |
| 2026-05-07 22:25 | 44.82230 | 20.29100 | 314 ft | 10 kts | 207° |
| 2026-05-07 22:25 | 44.82181 | 20.29061 | 312 ft | 0 kts | 211° |
| 2026-05-07 22:26 | 44.82176 | 20.29057 | 311 ft | 0 kts | 211° |